Observation data for Dozier on 07/18/2019      Previous  Date  Next       Current Mesonet Observations  Soil Data  Daily Summary Page  Observations in Plain Language
KDO1 180500Z 15008KT 28/18 A2994 RMK A01 T02780181  RH  055%=      5-min Rain = 0
KDO1 180501Z 15008KT 28/18 A2994 RMK A01 T02780181  RH  055%=      5-min Rain = 0
KDO1 180502Z 15008KT 28/18 A2994 RMK A01 T02780181  RH  055%=      5-min Rain = 0
KDO1 180503Z 15008KT 28/18 A2994 RMK A01 T02780181  RH  056%=      5-min Rain = 0
KDO1 180504Z 15007KT 28/18 A2994 RMK A01 T02780181  RH  056%=      5-min Rain = 0
KDO1 180505Z 15006KT 28/18 A2994 RMK A01 T02770181  RH  056%=      5-min Rain = 0
KDO1 180506Z 15008KT 28/18 A2994 RMK A01 T02770181  RH  056%=      5-min Rain = 0
KDO1 180507Z 15006KT 28/18 A2994 RMK A01 T02770182  RH  056%=      5-min Rain = 0
KDO1 180508Z 15006KT 28/18 A2994 RMK A01 T02770181  RH  056%=      5-min Rain = 0
KDO1 180509Z 15007KT 28/18 A2994 RMK A01 T02760181  RH  056%=      5-min Rain = 0
KDO1 180510Z 15006KT 28/18 A2994 RMK A01 T02760181  RH  056%=      5-min Rain = 0
KDO1 180511Z 15006KT 28/18 A2994 RMK A01 T02760182  RH  056%=      5-min Rain = 0
KDO1 180512Z 16006KT 28/18 A2995 RMK A01 T02750181  RH  057%=      5-min Rain = 0
KDO1 180513Z 16005KT 28/18 A2995 RMK A01 T02750181  RH  057%=      5-min Rain = 0
KDO1 180514Z 16006KT 28/18 A2995 RMK A01 T02750182  RH  057%=      5-min Rain = 0
KDO1 180515Z 16006KT 27/18 A2995 RMK A01 T02740182  RH  057%=      5-min Rain = 0
KDO1 180516Z 16006KT 27/18 A2994 RMK A01 T02740181  RH  057%=      5-min Rain = 0
KDO1 180517Z 16007KT 27/18 A2994 RMK A01 T02740181  RH  057%=      5-min Rain = 0
KDO1 180518Z 16006KT 27/18 A2994 RMK A01 T02740181  RH  057%=      5-min Rain = 0
KDO1 180519Z 16005KT 27/18 A2994 RMK A01 T02740181  RH  057%=      5-min Rain = 0
KDO1 180520Z 16005KT 27/18 A2994 RMK A01 T02730181  RH  057%=      5-min Rain = 0
KDO1 180521Z 16006KT 27/18 A2994 RMK A01 T02730181  RH  057%=      5-min Rain = 0
KDO1 180522Z 16007KT 27/18 A2994 RMK A01 T02720181  RH  057%=      5-min Rain = 0
KDO1 180523Z 16006KT 27/18 A2995 RMK A01 T02730181  RH  058%=      5-min Rain = 0
KDO1 180524Z 17007KT 27/18 A2995 RMK A01 T02730181  RH  057%=      5-min Rain = 0
KDO1 180525Z 17005KT 27/18 A2995 RMK A01 T02720181  RH  057%=      5-min Rain = 0
KDO1 180526Z 17006KT 27/18 A2995 RMK A01 T02720181  RH  057%=      5-min Rain = 0
KDO1 180527Z 17006KT 27/18 A2995 RMK A01 T02720181  RH  058%=      5-min Rain = 0
KDO1 180528Z 17006KT 27/18 A2995 RMK A01 T02720181  RH  058%=      5-min Rain = 0
KDO1 180529Z 17006KT 27/18 A2995 RMK A01 T02710181  RH  058%=      5-min Rain = 0
KDO1 180530Z 17006KT 27/18 A2995 RMK A01 T02710181  RH  058%=      5-min Rain = 0
KDO1 180531Z 17005KT 27/18 A2995 RMK A01 T02710181  RH  058%=      5-min Rain = 0
KDO1 180532Z 17005KT 27/18 A2995 RMK A01 T02700181  RH  058%=      5-min Rain = 0
KDO1 180533Z 17005KT 27/18 A2995 RMK A01 T02700181  RH  058%=      5-min Rain = 0
KDO1 180534Z 17005KT 27/18 A2995 RMK A01 T02700181  RH  058%=      5-min Rain = 0
KDO1 180535Z 16005KT 27/18 A2995 RMK A01 T02690181  RH  058%=      5-min Rain = 0
KDO1 180536Z 16004KT 27/18 A2995 RMK A01 T02690181  RH  059%=      5-min Rain = 0
KDO1 180537Z 17005KT 27/18 A2995 RMK A01 T02690181  RH  059%=      5-min Rain = 0
KDO1 180538Z 17005KT 27/18 A2995 RMK A01 T02690181  RH  059%=      5-min Rain = 0
KDO1 180539Z 17005KT 27/18 A2995 RMK A01 T02680181  RH  059%=      5-min Rain = 0
KDO1 180540Z 17005KT 27/18 A2995 RMK A01 T02680181  RH  059%=      5-min Rain = 0
KDO1 180541Z 17005KT 27/18 A2995 RMK A01 T02670181  RH  059%=      5-min Rain = 0
KDO1 180542Z 17005KT 27/18 A2995 RMK A01 T02670181  RH  059%=      5-min Rain = 0
KDO1 180543Z 17005KT 27/18 A2995 RMK A01 T02670181  RH  059%=      5-min Rain = 0
KDO1 180544Z 17005KT 27/18 A2995 RMK A01 T02670181  RH  059%=      5-min Rain = 0
KDO1 180545Z 17005KT 27/18 A2995 RMK A01 T02660180  RH  059%=      5-min Rain = 0
KDO1 180546Z 17005KT 27/18 A2995 RMK A01 T02660181  RH  059%=      5-min Rain = 0
KDO1 180547Z 17005KT 27/18 A2995 RMK A01 T02660181  RH  059%=      5-min Rain = 0
KDO1 180548Z 17004KT 27/18 A2995 RMK A01 T02660181  RH  060%=      5-min Rain = 0
KDO1 180549Z 17004KT 27/18 A2995 RMK A01 T02660181  RH  060%=      5-min Rain = 0
KDO1 180550Z 17004KT 27/18 A2995 RMK A01 T02650180  RH  060%=      5-min Rain = 0
KDO1 180551Z 17004KT 27/18 A2995 RMK A01 T02650181  RH  060%=      5-min Rain = 0
KDO1 180552Z 17004KT 27/18 A2995 RMK A01 T02650181  RH  060%=      5-min Rain = 0
KDO1 180553Z 17004KT 26/18 A2995 RMK A01 T02640181  RH  060%=      5-min Rain = 0
KDO1 180554Z 17004KT 26/18 A2995 RMK A01 T02640181  RH  060%=      5-min Rain = 0
KDO1 180555Z 17004KT 26/18 A2995 RMK A01 T02640181  RH  060%=      5-min Rain = 0
KDO1 180556Z 17003KT 26/18 A2995 RMK A01 T02640181  RH  060%=      5-min Rain = 0
KDO1 180557Z 17004KT 26/18 A2995 RMK A01 T02630181  RH  060%=      5-min Rain = 0
KDO1 180558Z 17004KT 26/18 A2995 RMK A01 T02630181  RH  060%=      5-min Rain = 0
KDO1 180559Z 17004KT 26/18 A2995 RMK A01 T02630181  RH  061%=      5-min Rain = 0
KDO1 180600Z 17004KT 26/18 A2995 RMK A01 T02630181  RH  061%=      5-min Rain = 0
KDO1 180601Z 17003KT 26/18 A2995 RMK A01 T02620181  RH  061%=      5-min Rain = 0
KDO1 180602Z 17004KT 26/18 A2995 RMK A01 T02620181  RH  061%=      5-min Rain = 0
KDO1 180603Z 17003KT 26/18 A2995 RMK A01 T02610181  RH  061%=      5-min Rain = 0
KDO1 180604Z 17003KT 26/18 A2995 RMK A01 T02610181  RH  061%=      5-min Rain = 0
KDO1 180605Z 17003KT 26/18 A2995 RMK A01 T02600181  RH  062%=      5-min Rain = 0
KDO1 180606Z 17003KT 26/18 A2995 RMK A01 T02600181  RH  062%=      5-min Rain = 0
KDO1 180607Z 17004KT 26/18 A2995 RMK A01 T02590181  RH  062%=      5-min Rain = 0
KDO1 180608Z 18003KT 26/18 A2995 RMK A01 T02600181  RH  062%=      5-min Rain = 0
KDO1 180609Z 17002KT 26/18 A2995 RMK A01 T02590181  RH  062%=      5-min Rain = 0
KDO1 180610Z 17003KT 26/18 A2995 RMK A01 T02590181  RH  062%=      5-min Rain = 0
KDO1 180611Z 18003KT 26/18 A2995 RMK A01 T02580181  RH  062%=      5-min Rain = 0
KDO1 180612Z 18003KT 26/18 A2995 RMK A01 T02580181  RH  062%=      5-min Rain = 0
KDO1 180613Z 18002KT 26/18 A2995 RMK A01 T02580180  RH  062%=      5-min Rain = 0
KDO1 180614Z 18003KT 26/18 A2995 RMK A01 T02580180  RH  062%=      5-min Rain = 0
KDO1 180615Z 18003KT 26/18 A2995 RMK A01 T02580181  RH  062%=      5-min Rain = 0
KDO1 180616Z 18003KT 26/18 A2995 RMK A01 T02580181  RH  062%=      5-min Rain = 0
KDO1 180617Z 19002KT 26/18 A2995 RMK A01 T02580181  RH  062%=      5-min Rain = 0
KDO1 180618Z 19002KT 26/18 A2995 RMK A01 T02580180  RH  062%=      5-min Rain = 0
KDO1 180619Z 18003KT 26/18 A2995 RMK A01 T02590181  RH  062%=      5-min Rain = 0
KDO1 180620Z 17002KT 26/18 A2995 RMK A01 T02590180  RH  062%=      5-min Rain = 0
KDO1 180621Z 17003KT 26/18 A2994 RMK A01 T02590181  RH  062%=      5-min Rain = 0
KDO1 180622Z 17003KT 26/18 A2994 RMK A01 T02590180  RH  062%=      5-min Rain = 0
KDO1 180623Z 16003KT 26/18 A2994 RMK A01 T02590181  RH  062%=      5-min Rain = 0
KDO1 180624Z 16003KT 26/18 A2994 RMK A01 T02590180  RH  062%=      5-min Rain = 0
KDO1 180625Z 17003KT 26/18 A2994 RMK A01 T02590180  RH  062%=      5-min Rain = 0
KDO1 180626Z 16004KT 26/18 A2994 RMK A01 T02590180  RH  062%=      5-min Rain = 0
KDO1 180627Z 16004KT 26/18 A2994 RMK A01 T02590180  RH  062%=      5-min Rain = 0
KDO1 180628Z 15004KT 26/18 A2994 RMK A01 T02600181  RH  062%=      5-min Rain = 0
KDO1 180629Z 14005KT 26/18 A2994 RMK A01 T02600181  RH  062%=      5-min Rain = 0
KDO1 180630Z 14004KT 26/18 A2994 RMK A01 T02590181  RH  062%=      5-min Rain = 0
KDO1 180631Z 14004KT 26/18 A2994 RMK A01 T02590181  RH  062%=      5-min Rain = 0
KDO1 180632Z 13004KT 26/18 A2994 RMK A01 T02570181  RH  063%=      5-min Rain = 0
KDO1 180633Z 13003KT 26/18 A2994 RMK A01 T02560181  RH  063%=      5-min Rain = 0
KDO1 180634Z 14003KT 26/18 A2994 RMK A01 T02550181  RH  063%=      5-min Rain = 0
KDO1 180635Z 14003KT 25/18 A2994 RMK A01 T02540181  RH  064%=      5-min Rain = 0
KDO1 180636Z 14004KT 25/18 A2994 RMK A01 T02530181  RH  064%=      5-min Rain = 0
KDO1 180637Z 14004KT 25/18 A2994 RMK A01 T02530180  RH  064%=      5-min Rain = 0
KDO1 180638Z 14004KT 25/18 A2994 RMK A01 T02530180  RH  064%=      5-min Rain = 0
KDO1 180639Z 15004KT 25/18 A2994 RMK A01 T02530180  RH  064%=      5-min Rain = 0
KDO1 180640Z 15004KT 25/18 A2994 RMK A01 T02530180  RH  064%=      5-min Rain = 0
KDO1 180641Z 14004KT 25/18 A2994 RMK A01 T02530180  RH  064%=      5-min Rain = 0
KDO1 180642Z 14004KT 25/18 A2994 RMK A01 T02530180  RH  064%=      5-min Rain = 0
KDO1 180643Z 15004KT 25/18 A2993 RMK A01 T02530180  RH  064%=      5-min Rain = 0
KDO1 180644Z 14004KT 25/18 A2993 RMK A01 T02530180  RH  064%=      5-min Rain = 0
KDO1 180645Z 15003KT 25/18 A2993 RMK A01 T02530181  RH  064%=      5-min Rain = 0
KDO1 180646Z 15004KT 25/18 A2993 RMK A01 T02530181  RH  064%=      5-min Rain = 0
KDO1 180647Z 15003KT 25/18 A2993 RMK A01 T02530181  RH  064%=      5-min Rain = 0
KDO1 180648Z 16004KT 25/18 A2993 RMK A01 T02530181  RH  064%=      5-min Rain = 0
KDO1 180649Z 15004KT 25/18 A2993 RMK A01 T02530181  RH  064%=      5-min Rain = 0
KDO1 180650Z 15004KT 25/18 A2993 RMK A01 T02530181  RH  064%=      5-min Rain = 0
KDO1 180651Z 15003KT 25/18 A2993 RMK A01 T02530181  RH  064%=      5-min Rain = 0
KDO1 180652Z 15004KT 25/18 A2993 RMK A01 T02530181  RH  064%=      5-min Rain = 0
KDO1 180653Z 14004KT 25/18 A2994 RMK A01 T02530181  RH  064%=      5-min Rain = 0
KDO1 180654Z 14002KT 25/18 A2994 RMK A01 T02530181  RH  064%=      5-min Rain = 0
KDO1 180655Z 13002KT 25/18 A2994 RMK A01 T02530181  RH  065%=      5-min Rain = 0
KDO1 180656Z 14002KT 25/18 A2994 RMK A01 T02520181  RH  065%=      5-min Rain = 0
KDO1 180657Z 13002KT 25/18 A2994 RMK A01 T02520181  RH  065%=      5-min Rain = 0
KDO1 180658Z 13002KT 25/18 A2994 RMK A01 T02510181  RH  065%=      5-min Rain = 0
KDO1 180659Z 14003KT 25/18 A2994 RMK A01 T02510181  RH  065%=      5-min Rain = 0
KDO1 180700Z 13002KT 25/18 A2994 RMK A01 T02510181  RH  065%=      5-min Rain = 0
KDO1 180701Z 14003KT 25/18 A2994 RMK A01 T02510181  RH  065%=      5-min Rain = 0
KDO1 180702Z 13003KT 25/18 A2994 RMK A01 T02500181  RH  066%=      5-min Rain = 0
KDO1 180703Z 13003KT 25/18 A2994 RMK A01 T02500181  RH  066%=      5-min Rain = 0
KDO1 180704Z 13003KT 25/18 A2994 RMK A01 T02490182  RH  066%=      5-min Rain = 0
KDO1 180705Z 13003KT 25/18 A2994 RMK A01 T02480181  RH  066%=      5-min Rain = 0
KDO1 180706Z 14003KT 25/18 A2994 RMK A01 T02480181  RH  066%=      5-min Rain = 0
KDO1 180707Z 14002KT 25/18 A2994 RMK A01 T02470181  RH  067%=      5-min Rain = 0
KDO1 180708Z 15003KT 25/18 A2994 RMK A01 T02470182  RH  067%=      5-min Rain = 0
KDO1 180709Z 14003KT 25/18 A2994 RMK A01 T02470182  RH  067%=      5-min Rain = 0
KDO1 180710Z 15003KT 25/18 A2994 RMK A01 T02460182  RH  067%=      5-min Rain = 0
KDO1 180711Z 15003KT 25/18 A2994 RMK A01 T02460182  RH  067%=      5-min Rain = 0
KDO1 180712Z 15003KT 25/18 A2994 RMK A01 T02460182  RH  067%=      5-min Rain = 0
KDO1 180713Z 15003KT 25/18 A2994 RMK A01 T02460182  RH  067%=      5-min Rain = 0
KDO1 180714Z 15003KT 25/18 A2994 RMK A01 T02460182  RH  067%=      5-min Rain = 0
KDO1 180715Z 16003KT 25/18 A2994 RMK A01 T02470182  RH  067%=      5-min Rain = 0
KDO1 180716Z 15004KT 25/18 A2994 RMK A01 T02470182  RH  067%=      5-min Rain = 0
KDO1 180717Z 15003KT 25/18 A2994 RMK A01 T02470182  RH  067%=      5-min Rain = 0
KDO1 180718Z 15003KT 25/18 A2994 RMK A01 T02480182  RH  067%=      5-min Rain = 0
KDO1 180719Z 15004KT 25/18 A2994 RMK A01 T02480182  RH  067%=      5-min Rain = 0
KDO1 180720Z 16004KT 25/18 A2993 RMK A01 T02480182  RH  067%=      5-min Rain = 0
KDO1 180721Z 15004KT 25/18 A2993 RMK A01 T02480182  RH  067%=      5-min Rain = 0
KDO1 180722Z 15005KT 25/18 A2993 RMK A01 T02480182  RH  067%=      5-min Rain = 0
KDO1 180723Z 15004KT 25/18 A2993 RMK A01 T02480183  RH  067%=      5-min Rain = 0
KDO1 180724Z 14004KT 25/18 A2993 RMK A01 T02470182  RH  067%=      5-min Rain = 0
KDO1 180725Z 14005KT 25/18 A2993 RMK A01 T02480183  RH  067%=      5-min Rain = 0
KDO1 180726Z 14005KT 25/18 A2993 RMK A01 T02470183  RH  067%=      5-min Rain = 0
KDO1 180727Z 14005KT 25/18 A2993 RMK A01 T02470183  RH  067%=      5-min Rain = 0
KDO1 180728Z 14005KT 25/18 A2993 RMK A01 T02470182  RH  067%=      5-min Rain = 0
KDO1 180729Z 14005KT 25/18 A2993 RMK A01 T02470183  RH  067%=      5-min Rain = 0
KDO1 180730Z 14005KT 25/18 A2993 RMK A01 T02470183  RH  068%=      5-min Rain = 0
KDO1 180731Z 14005KT 25/18 A2993 RMK A01 T02460183  RH  068%=      5-min Rain = 0
KDO1 180732Z 14005KT 25/18 A2993 RMK A01 T02460183  RH  068%=      5-min Rain = 0
KDO1 180733Z 13005KT 25/18 A2993 RMK A01 T02460183  RH  068%=      5-min Rain = 0
KDO1 180734Z 13005KT 25/18 A2993 RMK A01 T02450183  RH  068%=      5-min Rain = 0
KDO1 180735Z 13005KT 25/18 A2992 RMK A01 T02450183  RH  068%=      5-min Rain = 0
KDO1 180736Z 14005KT 25/18 A2992 RMK A01 T02450183  RH  068%=      5-min Rain = 0
KDO1 180737Z 14005KT 24/18 A2992 RMK A01 T02440183  RH  069%=      5-min Rain = 0
KDO1 180738Z 14005KT 24/18 A2992 RMK A01 T02440183  RH  069%=      5-min Rain = 0
KDO1 180739Z 14005KT 24/18 A2992 RMK A01 T02440183  RH  069%=      5-min Rain = 0
KDO1 180740Z 14005KT 24/18 A2992 RMK A01 T02430183  RH  069%=      5-min Rain = 0
KDO1 180741Z 14006KT 24/18 A2992 RMK A01 T02430183  RH  069%=      5-min Rain = 0
KDO1 180742Z 14005KT 24/18 A2992 RMK A01 T02430183  RH  069%=      5-min Rain = 0
KDO1 180743Z 14006KT 24/18 A2992 RMK A01 T02430183  RH  069%=      5-min Rain = 0
KDO1 180744Z 14006KT 24/18 A2992 RMK A01 T02430183  RH  069%=      5-min Rain = 0
KDO1 180745Z 14006KT 24/18 A2992 RMK A01 T02430183  RH  069%=      5-min Rain = 0
KDO1 180746Z 14006KT 24/18 A2992 RMK A01 T02430183  RH  069%=      5-min Rain = 0
KDO1 180747Z 14005KT 24/18 A2992 RMK A01 T02430183  RH  069%=      5-min Rain = 0
KDO1 180748Z 14006KT 24/18 A2992 RMK A01 T02430183  RH  069%=      5-min Rain = 0
KDO1 180749Z 14006KT 24/18 A2992 RMK A01 T02430183  RH  069%=      5-min Rain = 0
KDO1 180750Z 14005KT 24/18 A2992 RMK A01 T02430183  RH  069%=      5-min Rain = 0
KDO1 180751Z 15005KT 24/18 A2992 RMK A01 T02430183  RH  069%=      5-min Rain = 0
KDO1 180752Z 15005KT 24/18 A2992 RMK A01 T02430183  RH  069%=      5-min Rain = 0
KDO1 180753Z 16004KT 24/18 A2993 RMK A01 T02430183  RH  069%=      5-min Rain = 0
KDO1 180754Z 17003KT 24/18 A2993 RMK A01 T02430183  RH  069%=      5-min Rain = 0
KDO1 180755Z 18003KT 24/18 A2993 RMK A01 T02440183  RH  069%=      5-min Rain = 0
KDO1 180756Z 20002KT 24/18 A2993 RMK A01 T02440183  RH  069%=      5-min Rain = 0
KDO1 180757Z 21002KT 24/18 A2993 RMK A01 T02440184  RH  069%=      5-min Rain = 0
KDO1 180758Z 22002KT 24/18 A2993 RMK A01 T02440184  RH  069%=      5-min Rain = 0
KDO1 180759Z 24002KT 24/18 A2993 RMK A01 T02420184  RH  070%=      5-min Rain = 0
KDO1 180800Z 22002KT 24/18 A2994 RMK A01 T02410184  RH  070%=      5-min Rain = 0
KDO1 180801Z 22002KT 24/18 A2994 RMK A01 T02400184  RH  071%=      5-min Rain = 0
KDO1 180802Z 20002KT 24/18 A2994 RMK A01 T02390184  RH  071%=      5-min Rain = 0
KDO1 180803Z 19003KT 24/18 A2993 RMK A01 T02390184  RH  071%=      5-min Rain = 0
KDO1 180804Z 17003KT 24/18 A2993 RMK A01 T02390183  RH  071%=      5-min Rain = 0
KDO1 180805Z 16005KT 24/18 A2993 RMK A01 T02400183  RH  071%=      5-min Rain = 0
KDO1 180806Z 16005KT 24/18 A2993 RMK A01 T02400183  RH  070%=      5-min Rain = 0
KDO1 180807Z 15006KT 24/18 A2993 RMK A01 T02410183  RH  070%=      5-min Rain = 0
KDO1 180808Z 15007KT 24/18 A2992 RMK A01 T02410183  RH  070%=      5-min Rain = 0
KDO1 180809Z 15007KT 24/18 A2992 RMK A01 T02410183  RH  070%=      5-min Rain = 0
KDO1 180810Z 15007KT 24/18 A2992 RMK A01 T02400183  RH  070%=      5-min Rain = 0
KDO1 180811Z 15007KT 24/18 A2992 RMK A01 T02400182  RH  070%=      5-min Rain = 0
KDO1 180812Z 15007KT 24/18 A2992 RMK A01 T02410183  RH  070%=      5-min Rain = 0
KDO1 180813Z 15007KT 24/18 A2992 RMK A01 T02420183  RH  070%=      5-min Rain = 0
KDO1 180814Z 15006KT 24/18 A2992 RMK A01 T02420183  RH  069%=      5-min Rain = 0
KDO1 180815Z 15006KT 24/18 A2992 RMK A01 T02430183  RH  069%=      5-min Rain = 0
KDO1 180816Z 15006KT 24/18 A2993 RMK A01 T02430183  RH  069%=      5-min Rain = 0
KDO1 180817Z 15006KT 24/18 A2993 RMK A01 T02430183  RH  069%=      5-min Rain = 0
KDO1 180818Z 15006KT 24/18 A2993 RMK A01 T02430183  RH  069%=      5-min Rain = 0
KDO1 180819Z 15006KT 24/18 A2992 RMK A01 T02430183  RH  069%=      5-min Rain = 0
KDO1 180820Z 15005KT 24/18 A2992 RMK A01 T02430183  RH  069%=      5-min Rain = 0
KDO1 180821Z 15006KT 24/18 A2992 RMK A01 T02430183  RH  069%=      5-min Rain = 0
KDO1 180822Z 15006KT 24/18 A2992 RMK A01 T02420183  RH  069%=      5-min Rain = 0
KDO1 180823Z 15006KT 24/18 A2992 RMK A01 T02420183  RH  069%=      5-min Rain = 0
KDO1 180824Z 15006KT 24/18 A2992 RMK A01 T02420183  RH  069%=      5-min Rain = 0
KDO1 180825Z 15006KT 24/18 A2992 RMK A01 T02420183  RH  069%=      5-min Rain = 0
KDO1 180826Z 15005KT 24/18 A2992 RMK A01 T02420183  RH  069%=      5-min Rain = 0
KDO1 180827Z 15006KT 24/18 A2992 RMK A01 T02420183  RH  070%=      5-min Rain = 0
KDO1 180828Z 16005KT 24/18 A2992 RMK A01 T02420183  RH  070%=      5-min Rain = 0
KDO1 180829Z 16006KT 24/18 A2993 RMK A01 T02420183  RH  069%=      5-min Rain = 0
KDO1 180830Z 16005KT 24/18 A2993 RMK A01 T02420183  RH  069%=      5-min Rain = 0
KDO1 180831Z 16005KT 24/18 A2993 RMK A01 T02420183  RH  069%=      5-min Rain = 0
KDO1 180832Z 16005KT 24/18 A2993 RMK A01 T02420183  RH  069%=      5-min Rain = 0
KDO1 180833Z 16005KT 24/18 A2993 RMK A01 T02420183  RH  069%=      5-min Rain = 0
KDO1 180834Z 16005KT 24/18 A2993 RMK A01 T02420183  RH  069%=      5-min Rain = 0
KDO1 180835Z 16005KT 24/18 A2993 RMK A01 T02420183  RH  070%=      5-min Rain = 0
KDO1 180836Z 16005KT 24/18 A2993 RMK A01 T02420183  RH  070%=      5-min Rain = 0
KDO1 180837Z 16005KT 24/18 A2993 RMK A01 T02420183  RH  070%=      5-min Rain = 0
KDO1 180838Z 17005KT 24/18 A2993 RMK A01 T02420183  RH  070%=      5-min Rain = 0
KDO1 180839Z 17005KT 24/18 A2993 RMK A01 T02420183  RH  070%=      5-min Rain = 0
KDO1 180840Z 17005KT 24/18 A2993 RMK A01 T02420183  RH  070%=      5-min Rain = 0
KDO1 180841Z 18005KT 24/18 A2993 RMK A01 T02420183  RH  070%=      5-min Rain = 0
KDO1 180842Z 18005KT 24/18 A2993 RMK A01 T02410183  RH  070%=      5-min Rain = 0
KDO1 180843Z 18005KT 24/18 A2993 RMK A01 T02420183  RH  070%=      5-min Rain = 0
KDO1 180844Z 18005KT 24/18 A2993 RMK A01 T02420183  RH  070%=      5-min Rain = 0
KDO1 180845Z 18005KT 24/18 A2993 RMK A01 T02420183  RH  070%=      5-min Rain = 0
KDO1 180846Z 18005KT 24/18 A2993 RMK A01 T02410183  RH  070%=      5-min Rain = 0
KDO1 180847Z 18006KT 24/18 A2993 RMK A01 T02410183  RH  070%=      5-min Rain = 0
KDO1 180848Z 18006KT 24/18 A2993 RMK A01 T02410183  RH  070%=      5-min Rain = 0
KDO1 180849Z 18006KT 24/18 A2993 RMK A01 T02400183  RH  070%=      5-min Rain = 0
KDO1 180850Z 18006KT 24/18 A2993 RMK A01 T02400183  RH  071%=      5-min Rain = 0
KDO1 180851Z 18006KT 24/18 A2993 RMK A01 T02400183  RH  071%=      5-min Rain = 0
KDO1 180852Z 18006KT 24/18 A2993 RMK A01 T02400183  RH  071%=      5-min Rain = 0
KDO1 180853Z 18006KT 24/18 A2993 RMK A01 T02400184  RH  071%=      5-min Rain = 0
KDO1 180854Z 18007KT 24/18 A2993 RMK A01 T02400184  RH  071%=      5-min Rain = 0
KDO1 180855Z 18006KT 24/18 A2993 RMK A01 T02400184  RH  071%=      5-min Rain = 0
KDO1 180856Z 17006KT 24/18 A2993 RMK A01 T02400184  RH  071%=      5-min Rain = 0
KDO1 180857Z 18006KT 24/18 A2993 RMK A01 T02390184  RH  071%=      5-min Rain = 0
KDO1 180858Z 17007KT 24/18 A2993 RMK A01 T02390184  RH  071%=      5-min Rain = 0
KDO1 180859Z 17006KT 24/18 A2993 RMK A01 T02390184  RH  071%=      5-min Rain = 0
KDO1 180900Z 17006KT 24/18 A2993 RMK A01 T02390184  RH  071%=      5-min Rain = 0
KDO1 180901Z 17006KT 24/18 A2993 RMK A01 T02390184  RH  072%=      5-min Rain = 0
KDO1 180902Z 17005KT 24/18 A2993 RMK A01 T02380184  RH  072%=      5-min Rain = 0
KDO1 180903Z 18006KT 24/19 A2993 RMK A01 T02380185  RH  072%=      5-min Rain = 0
KDO1 180904Z 18006KT 24/19 A2993 RMK A01 T02380185  RH  072%=      5-min Rain = 0
KDO1 180905Z 18006KT 24/19 A2993 RMK A01 T02380185  RH  072%=      5-min Rain = 0
KDO1 180906Z 18006KT 24/19 A2993 RMK A01 T02380185  RH  072%=      5-min Rain = 0
KDO1 180907Z 19005KT 24/19 A2993 RMK A01 T02370185  RH  072%=      5-min Rain = 0
KDO1 180908Z 19006KT 24/19 A2993 RMK A01 T02370185  RH  073%=      5-min Rain = 0
KDO1 180909Z 19005KT 24/19 A2994 RMK A01 T02360185  RH  073%=      5-min Rain = 0
KDO1 180910Z 19005KT 24/19 A2994 RMK A01 T02360185  RH  073%=      5-min Rain = 0
KDO1 180911Z 19005KT 24/19 A2994 RMK A01 T02370185  RH  073%=      5-min Rain = 0
KDO1 180912Z 19005KT 24/19 A2994 RMK A01 T02370185  RH  073%=      5-min Rain = 0
KDO1 180913Z 19005KT 24/19 A2994 RMK A01 T02360185  RH  073%=      5-min Rain = 0
KDO1 180914Z 19005KT 24/19 A2994 RMK A01 T02370185  RH  073%=      5-min Rain = 0
KDO1 180915Z 19005KT 24/19 A2994 RMK A01 T02370185  RH  073%=      5-min Rain = 0
KDO1 180916Z 18005KT 24/19 A2994 RMK A01 T02370185  RH  073%=      5-min Rain = 0
KDO1 180917Z 18005KT 24/19 A2994 RMK A01 T02370185  RH  073%=      5-min Rain = 0
KDO1 180918Z 18005KT 24/19 A2994 RMK A01 T02370185  RH  073%=      5-min Rain = 0
KDO1 180919Z 18005KT 24/19 A2994 RMK A01 T02370185  RH  073%=      5-min Rain = 0
KDO1 180920Z 18005KT 24/19 A2994 RMK A01 T02370185  RH  073%=      5-min Rain = 0
KDO1 180921Z 18005KT 24/19 A2994 RMK A01 T02370185  RH  073%=      5-min Rain = 0
KDO1 180922Z 18005KT 24/19 A2994 RMK A01 T02360185  RH  073%=      5-min Rain = 0
KDO1 180923Z 18005KT 24/19 A2994 RMK A01 T02360185  RH  073%=      5-min Rain = 0
KDO1 180924Z 18005KT 24/19 A2994 RMK A01 T02350185  RH  073%=      5-min Rain = 0
KDO1 180925Z 19005KT 24/19 A2994 RMK A01 T02350185  RH  073%=      5-min Rain = 0
KDO1 180926Z 19005KT 24/19 A2994 RMK A01 T02350185  RH  074%=      5-min Rain = 0
KDO1 180927Z 18005KT 24/19 A2994 RMK A01 T02350185  RH  074%=      5-min Rain = 0
KDO1 180928Z 18005KT 24/19 A2994 RMK A01 T02350185  RH  074%=      5-min Rain = 0
KDO1 180929Z 18005KT 23/19 A2994 RMK A01 T02340186  RH  074%=      5-min Rain = 0
KDO1 180930Z 18006KT 23/19 A2994 RMK A01 T02340185  RH  074%=      5-min Rain = 0
KDO1 180931Z 18006KT 23/19 A2994 RMK A01 T02340185  RH  074%=      5-min Rain = 0
KDO1 180932Z 18006KT 23/19 A2994 RMK A01 T02340186  RH  074%=      5-min Rain = 0
KDO1 180933Z 18006KT 23/19 A2994 RMK A01 T02340185  RH  074%=      5-min Rain = 0
KDO1 180934Z 18005KT 23/19 A2994 RMK A01 T02340186  RH  074%=      5-min Rain = 0
KDO1 180935Z 19006KT 23/19 A2994 RMK A01 T02340186  RH  074%=      5-min Rain = 0
KDO1 180936Z 19005KT 23/19 A2994 RMK A01 T02340186  RH  074%=      5-min Rain = 0
KDO1 180937Z 19006KT 23/19 A2994 RMK A01 T02340186  RH  074%=      5-min Rain = 0
KDO1 180938Z 19005KT 23/19 A2994 RMK A01 T02340186  RH  074%=      5-min Rain = 0
KDO1 180939Z 19006KT 23/19 A2994 RMK A01 T02340186  RH  074%=      5-min Rain = 0
KDO1 180940Z 19005KT 24/19 A2994 RMK A01 T02350186  RH  074%=      5-min Rain = 0
KDO1 180941Z 19006KT 24/19 A2994 RMK A01 T02350186  RH  074%=      5-min Rain = 0
KDO1 180942Z 19006KT 24/19 A2994 RMK A01 T02360186  RH  074%=      5-min Rain = 0
KDO1 180943Z 18006KT 24/19 A2994 RMK A01 T02360186  RH  074%=      5-min Rain = 0
KDO1 180944Z 18006KT 24/19 A2994 RMK A01 T02360186  RH  074%=      5-min Rain = 0
KDO1 180945Z 18005KT 24/19 A2994 RMK A01 T02360186  RH  073%=      5-min Rain = 0
KDO1 180946Z 18006KT 24/19 A2994 RMK A01 T02360186  RH  073%=      5-min Rain = 0
KDO1 180947Z 17006KT 24/19 A2994 RMK A01 T02370186  RH  073%=      5-min Rain = 0
KDO1 180948Z 17005KT 24/19 A2994 RMK A01 T02370186  RH  073%=      5-min Rain = 0
KDO1 180949Z 17005KT 24/19 A2994 RMK A01 T02370187  RH  073%=      5-min Rain = 0
KDO1 180950Z 17005KT 24/19 A2994 RMK A01 T02370186  RH  073%=      5-min Rain = 0
KDO1 180951Z 17005KT 24/19 A2994 RMK A01 T02370186  RH  073%=      5-min Rain = 0
KDO1 180952Z 16006KT 24/19 A2994 RMK A01 T02370186  RH  073%=      5-min Rain = 0
KDO1 180953Z 17006KT 24/19 A2994 RMK A01 T02360186  RH  073%=      5-min Rain = 0
KDO1 180954Z 16006KT 24/19 A2994 RMK A01 T02360186  RH  073%=      5-min Rain = 0
KDO1 180955Z 16006KT 24/19 A2994 RMK A01 T02370186  RH  073%=      5-min Rain = 0
KDO1 180956Z 16006KT 24/19 A2994 RMK A01 T02370187  RH  074%=      5-min Rain = 0
KDO1 180957Z 16006KT 24/19 A2994 RMK A01 T02370187  RH  074%=      5-min Rain = 0
KDO1 180958Z 16006KT 24/19 A2994 RMK A01 T02370187  RH  073%=      5-min Rain = 0
KDO1 180959Z 16007KT 24/19 A2994 RMK A01 T02370187  RH  073%=      5-min Rain = 0
KDO1 181000Z 16007KT 24/19 A2994 RMK A01 T02380187  RH  073%=      5-min Rain = 0
KDO1 181001Z 16006KT 24/19 A2994 RMK A01 T02380187  RH  073%=      5-min Rain = 0
KDO1 181002Z 16006KT 24/19 A2994 RMK A01 T02390187  RH  073%=      5-min Rain = 0
KDO1 181003Z 16006KT 24/19 A2994 RMK A01 T02390187  RH  073%=      5-min Rain = 0
KDO1 181004Z 16006KT 24/19 A2994 RMK A01 T02390187  RH  073%=      5-min Rain = 0
KDO1 181005Z 16007KT 24/19 A2994 RMK A01 T02400187  RH  072%=      5-min Rain = 0
KDO1 181006Z 16006KT 24/19 A2994 RMK A01 T02400187  RH  072%=      5-min Rain = 0
KDO1 181007Z 16007KT 24/19 A2994 RMK A01 T02400187  RH  072%=      5-min Rain = 0
KDO1 181008Z 16006KT 24/19 A2994 RMK A01 T02410187  RH  072%=      5-min Rain = 0
KDO1 181009Z 16006KT 24/19 A2994 RMK A01 T02410187  RH  072%=      5-min Rain = 0
KDO1 181010Z 16006KT 24/19 A2994 RMK A01 T02410187  RH  072%=      5-min Rain = 0
KDO1 181011Z 17005KT 24/19 A2994 RMK A01 T02410187  RH  072%=      5-min Rain = 0
KDO1 181012Z 16006KT 24/19 A2994 RMK A01 T02410187  RH  072%=      5-min Rain = 0
KDO1 181013Z 16006KT 24/19 A2995 RMK A01 T02410187  RH  072%=      5-min Rain = 0
KDO1 181014Z 17006KT 24/19 A2995 RMK A01 T02420188  RH  072%=      5-min Rain = 0
KDO1 181015Z 16007KT 24/19 A2995 RMK A01 T02410187  RH  072%=      5-min Rain = 0
KDO1 181016Z 16006KT 24/19 A2995 RMK A01 T02420187  RH  072%=      5-min Rain = 0
KDO1 181017Z 17006KT 24/19 A2995 RMK A01 T02420188  RH  072%=      5-min Rain = 0
KDO1 181018Z 17006KT 24/19 A2995 RMK A01 T02420188  RH  071%=      5-min Rain = 0
KDO1 181019Z 17006KT 24/19 A2995 RMK A01 T02430188  RH  071%=      5-min Rain = 0
KDO1 181020Z 17006KT 24/19 A2995 RMK A01 T02420188  RH  071%=      5-min Rain = 0
KDO1 181021Z 17007KT 24/19 A2995 RMK A01 T02430188  RH  071%=      5-min Rain = 0
KDO1 181022Z 16006KT 24/19 A2995 RMK A01 T02430188  RH  071%=      5-min Rain = 0
KDO1 181023Z 17007KT 24/19 A2995 RMK A01 T02430188  RH  071%=      5-min Rain = 0
KDO1 181024Z 17006KT 24/19 A2995 RMK A01 T02430188  RH  071%=      5-min Rain = 0
KDO1 181025Z 17005KT 24/19 A2995 RMK A01 T02430188  RH  071%=      5-min Rain = 0
KDO1 181026Z 17006KT 24/19 A2995 RMK A01 T02430188  RH  072%=      5-min Rain = 0
KDO1 181027Z 17006KT 24/19 A2995 RMK A01 T02430188  RH  072%=      5-min Rain = 0
KDO1 181028Z 17006KT 24/19 A2995 RMK A01 T02430189  RH  072%=      5-min Rain = 0
KDO1 181029Z 17006KT 24/19 A2995 RMK A01 T02430189  RH  072%=      5-min Rain = 0
KDO1 181030Z 17006KT 24/19 A2995 RMK A01 T02430189  RH  072%=      5-min Rain = 0
KDO1 181031Z 18007KT 24/19 A2995 RMK A01 T02430189  RH  072%=      5-min Rain = 0
KDO1 181032Z 18006KT 24/19 A2995 RMK A01 T02430189  RH  072%=      5-min Rain = 0
KDO1 181033Z 18005KT 24/19 A2995 RMK A01 T02430188  RH  072%=      5-min Rain = 0
KDO1 181034Z 18006KT 24/19 A2995 RMK A01 T02430188  RH  072%=      5-min Rain = 0
KDO1 181035Z 18005KT 24/19 A2995 RMK A01 T02420188  RH  072%=      5-min Rain = 0
KDO1 181036Z 18007KT 24/19 A2995 RMK A01 T02420188  RH  072%=      5-min Rain = 0
KDO1 181037Z 18006KT 24/19 A2995 RMK A01 T02420188  RH  072%=      5-min Rain = 0
KDO1 181038Z 18007KT 24/19 A2995 RMK A01 T02430189  RH  072%=      5-min Rain = 0
KDO1 181039Z 18006KT 24/19 A2995 RMK A01 T02430189  RH  072%=      5-min Rain = 0
KDO1 181040Z 18006KT 24/19 A2995 RMK A01 T02430188  RH  072%=      5-min Rain = 0
KDO1 181041Z 18006KT 24/19 A2995 RMK A01 T02430188  RH  072%=      5-min Rain = 0
KDO1 181042Z 18005KT 24/19 A2995 RMK A01 T02430188  RH  072%=      5-min Rain = 0
KDO1 181043Z 18005KT 24/19 A2995 RMK A01 T02430189  RH  072%=      5-min Rain = 0
KDO1 181044Z 18007KT 24/19 A2995 RMK A01 T02420189  RH  072%=      5-min Rain = 0
KDO1 181045Z 18005KT 24/19 A2995 RMK A01 T02420188  RH  072%=      5-min Rain = 0
KDO1 181046Z 17006KT 24/19 A2995 RMK A01 T02420188  RH  072%=      5-min Rain = 0
KDO1 181047Z 18006KT 24/19 A2995 RMK A01 T02430188  RH  072%=      5-min Rain = 0
KDO1 181048Z 18005KT 24/19 A2995 RMK A01 T02430188  RH  072%=      5-min Rain = 0
KDO1 181049Z 18006KT 24/19 A2995 RMK A01 T02420188  RH  072%=      5-min Rain = 0
KDO1 181050Z 19005KT 24/19 A2995 RMK A01 T02430189  RH  072%=      5-min Rain = 0
KDO1 181051Z 18005KT 24/19 A2995 RMK A01 T02420189  RH  072%=      5-min Rain = 0
KDO1 181052Z 18006KT 24/19 A2995 RMK A01 T02420189  RH  072%=      5-min Rain = 0
KDO1 181053Z 19005KT 24/19 A2995 RMK A01 T02420189  RH  072%=      5-min Rain = 0
KDO1 181054Z 19005KT 24/19 A2995 RMK A01 T02410189  RH  072%=      5-min Rain = 0
KDO1 181055Z 20005KT 24/19 A2995 RMK A01 T02410189  RH  072%=      5-min Rain = 0
KDO1 181056Z 20005KT 24/19 A2995 RMK A01 T02410189  RH  073%=      5-min Rain = 0
KDO1 181057Z 20004KT 24/19 A2995 RMK A01 T02410189  RH  073%=      5-min Rain = 0
KDO1 181058Z 19005KT 24/19 A2995 RMK A01 T02400189  RH  073%=      5-min Rain = 0
KDO1 181059Z 20005KT 24/19 A2995 RMK A01 T02400189  RH  073%=      5-min Rain = 0
KDO1 181100Z 20005KT 24/19 A2995 RMK A01 T02390188  RH  073%=      5-min Rain = 0
KDO1 181101Z 19006KT 24/19 A2995 RMK A01 T02390189  RH  073%=      5-min Rain = 0
KDO1 181102Z 19006KT 24/19 A2995 RMK A01 T02390189  RH  073%=      5-min Rain = 0
KDO1 181103Z 19006KT 24/19 A2995 RMK A01 T02390189  RH  073%=      5-min Rain = 0
KDO1 181104Z 19006KT 24/19 A2995 RMK A01 T02390189  RH  074%=      5-min Rain = 0
KDO1 181105Z 19006KT 24/19 A2995 RMK A01 T02390189  RH  074%=      5-min Rain = 0
KDO1 181106Z 19005KT 24/19 A2995 RMK A01 T02390189  RH  074%=      5-min Rain = 0
KDO1 181107Z 18005KT 24/19 A2995 RMK A01 T02380189  RH  074%=      5-min Rain = 0
KDO1 181108Z 18005KT 24/19 A2995 RMK A01 T02390189  RH  074%=      5-min Rain = 0
KDO1 181109Z 18005KT 24/19 A2995 RMK A01 T02380189  RH  074%=      5-min Rain = 0
KDO1 181110Z 19005KT 24/19 A2995 RMK A01 T02380189  RH  074%=      5-min Rain = 0
KDO1 181111Z 18005KT 24/19 A2995 RMK A01 T02380189  RH  074%=      5-min Rain = 0
KDO1 181112Z 19004KT 24/19 A2995 RMK A01 T02380189  RH  074%=      5-min Rain = 0
KDO1 181113Z 19004KT 24/19 A2996 RMK A01 T02380189  RH  074%=      5-min Rain = 0
KDO1 181114Z 19004KT 24/19 A2996 RMK A01 T02370189  RH  074%=      5-min Rain = 0
KDO1 181115Z 19004KT 24/19 A2996 RMK A01 T02370189  RH  074%=      5-min Rain = 0
KDO1 181116Z 19004KT 24/19 A2996 RMK A01 T02370189  RH  074%=      5-min Rain = 0
KDO1 181117Z 19005KT 24/19 A2996 RMK A01 T02370189  RH  075%=      5-min Rain = 0
KDO1 181118Z 19004KT 24/19 A2996 RMK A01 T02360189  RH  075%=      5-min Rain = 0
KDO1 181119Z 19005KT 24/19 A2996 RMK A01 T02370189  RH  075%=      5-min Rain = 0
KDO1 181120Z 19004KT 24/19 A2996 RMK A01 T02360189  RH  075%=      5-min Rain = 0
KDO1 181121Z 19004KT 24/19 A2996 RMK A01 T02360189  RH  075%=      5-min Rain = 0
KDO1 181122Z 19004KT 24/19 A2996 RMK A01 T02360189  RH  075%=      5-min Rain = 0
KDO1 181123Z 19004KT 24/19 A2996 RMK A01 T02360189  RH  075%=      5-min Rain = 0
KDO1 181124Z 20003KT 24/19 A2996 RMK A01 T02360189  RH  075%=      5-min Rain = 0
KDO1 181125Z 20004KT 24/19 A2996 RMK A01 T02350189  RH  075%=      5-min Rain = 0
KDO1 181126Z 19004KT 24/19 A2996 RMK A01 T02350189  RH  076%=      5-min Rain = 0
KDO1 181127Z 20004KT 24/19 A2996 RMK A01 T02350189  RH  076%=      5-min Rain = 0
KDO1 181128Z 20004KT 23/19 A2996 RMK A01 T02340189  RH  076%=      5-min Rain = 0
KDO1 181129Z 19005KT 23/19 A2996 RMK A01 T02340189  RH  076%=      5-min Rain = 0
KDO1 181130Z 19005KT 23/19 A2995 RMK A01 T02340190  RH  076%=      5-min Rain = 0
KDO1 181131Z 19004KT 23/19 A2995 RMK A01 T02340190  RH  076%=      5-min Rain = 0
KDO1 181132Z 19004KT 23/19 A2995 RMK A01 T02340190  RH  076%=      5-min Rain = 0
KDO1 181133Z 19004KT 23/19 A2995 RMK A01 T02340190  RH  076%=      5-min Rain = 0
KDO1 181134Z 19004KT 23/19 A2995 RMK A01 T02330190  RH  076%=      5-min Rain = 0
KDO1 181135Z 18004KT 23/19 A2995 RMK A01 T02330189  RH  077%=      5-min Rain = 0
KDO1 181136Z 18005KT 23/19 A2995 RMK A01 T02320189  RH  077%=      5-min Rain = 0
KDO1 181137Z 17005KT 23/19 A2995 RMK A01 T02320190  RH  077%=      5-min Rain = 0
KDO1 181138Z 17005KT 23/19 A2995 RMK A01 T02320190  RH  077%=      5-min Rain = 0
KDO1 181139Z 17005KT 23/19 A2995 RMK A01 T02310189  RH  077%=      5-min Rain = 0
KDO1 181140Z 17005KT 23/19 A2995 RMK A01 T02310190  RH  077%=      5-min Rain = 0
KDO1 181141Z 17005KT 23/19 A2995 RMK A01 T02320190  RH  077%=      5-min Rain = 0
KDO1 181142Z 17005KT 23/19 A2995 RMK A01 T02310190  RH  077%=      5-min Rain = 0
KDO1 181143Z 17005KT 23/19 A2995 RMK A01 T02310190  RH  077%=      5-min Rain = 0
KDO1 181144Z 17005KT 23/19 A2995 RMK A01 T02310190  RH  078%=      5-min Rain = 0
KDO1 181145Z 16006KT 23/19 A2995 RMK A01 T02310190  RH  078%=      5-min Rain = 0
KDO1 181146Z 17005KT 23/19 A2995 RMK A01 T02310190  RH  078%=      5-min Rain = 0
KDO1 181147Z 17005KT 23/19 A2995 RMK A01 T02310190  RH  078%=      5-min Rain = 0
KDO1 181148Z 17005KT 23/19 A2995 RMK A01 T02310190  RH  078%=      5-min Rain = 0
KDO1 181149Z 17005KT 23/19 A2995 RMK A01 T02310190  RH  078%=      5-min Rain = 0
KDO1 181150Z 17005KT 23/19 A2995 RMK A01 T02310190  RH  078%=      5-min Rain = 0
KDO1 181151Z 17005KT 23/19 A2995 RMK A01 T02320191  RH  078%=      5-min Rain = 0
KDO1 181152Z 17005KT 23/19 A2995 RMK A01 T02310190  RH  078%=      5-min Rain = 0
KDO1 181153Z 17005KT 23/19 A2995 RMK A01 T02320191  RH  078%=      5-min Rain = 0
KDO1 181154Z 16005KT 23/19 A2995 RMK A01 T02320191  RH  078%=      5-min Rain = 0
KDO1 181155Z 16005KT 23/19 A2995 RMK A01 T02320191  RH  078%=      5-min Rain = 0
KDO1 181156Z 16005KT 23/19 A2995 RMK A01 T02320191  RH  078%=      5-min Rain = 0
KDO1 181157Z 16005KT 23/19 A2995 RMK A01 T02320192  RH  078%=      5-min Rain = 0
KDO1 181158Z 16006KT 23/19 A2995 RMK A01 T02320192  RH  078%=      5-min Rain = 0
KDO1 181159Z 16006KT 23/19 A2995 RMK A01 T02320192  RH  078%=      5-min Rain = 0
KDO1 181200Z 15006KT 23/19 A2995 RMK A01 T02320192  RH  078%=      5-min Rain = 0
KDO1 181201Z 16005KT 23/19 A2995 RMK A01 T02320192  RH  078%=      5-min Rain = 0
KDO1 181202Z 16005KT 23/19 A2995 RMK A01 T02320192  RH  078%=      5-min Rain = 0
KDO1 181203Z 16005KT 23/19 A2995 RMK A01 T02320192  RH  078%=      5-min Rain = 0
KDO1 181204Z 16005KT 23/19 A2995 RMK A01 T02330193  RH  078%=      5-min Rain = 0
KDO1 181205Z 17005KT 23/19 A2995 RMK A01 T02330192  RH  078%=      5-min Rain = 0
KDO1 181206Z 16005KT 23/19 A2995 RMK A01 T02330193  RH  078%=      5-min Rain = 0
KDO1 181207Z 17004KT 23/19 A2995 RMK A01 T02330193  RH  078%=      5-min Rain = 0
KDO1 181208Z 17005KT 23/19 A2995 RMK A01 T02340193  RH  078%=      5-min Rain = 0
KDO1 181209Z 17004KT 24/19 A2995 RMK A01 T02350193  RH  077%=      5-min Rain = 0
KDO1 181210Z 18005KT 24/19 A2995 RMK A01 T02350193  RH  077%=      5-min Rain = 0
KDO1 181211Z 17005KT 24/19 A2995 RMK A01 T02350193  RH  077%=      5-min Rain = 0
KDO1 181212Z 17005KT 24/19 A2995 RMK A01 T02350193  RH  077%=      5-min Rain = 0
KDO1 181213Z 18004KT 24/19 A2995 RMK A01 T02350193  RH  077%=      5-min Rain = 0
KDO1 181214Z 17004KT 24/19 A2995 RMK A01 T02350193  RH  077%=      5-min Rain = 0
KDO1 181215Z 17005KT 24/19 A2995 RMK A01 T02360194  RH  077%=      5-min Rain = 0
KDO1 181216Z 17005KT 24/19 A2995 RMK A01 T02360194  RH  077%=      5-min Rain = 0
KDO1 181217Z 17004KT 24/19 A2995 RMK A01 T02360194  RH  077%=      5-min Rain = 0
KDO1 181218Z 17005KT 24/19 A2995 RMK A01 T02360194  RH  077%=      5-min Rain = 0
KDO1 181219Z 18004KT 24/19 A2995 RMK A01 T02360194  RH  077%=      5-min Rain = 0
KDO1 181220Z 18004KT 24/19 A2995 RMK A01 T02360194  RH  077%=      5-min Rain = 0
KDO1 181221Z 17005KT 24/19 A2995 RMK A01 T02370194  RH  077%=      5-min Rain = 0
KDO1 181222Z 17005KT 24/19 A2995 RMK A01 T02370194  RH  077%=      5-min Rain = 0
KDO1 181223Z 17006KT 24/20 A2995 RMK A01 T02370195  RH  077%=      5-min Rain = 0
KDO1 181224Z 16007KT 24/20 A2995 RMK A01 T02380195  RH  077%=      5-min Rain = 0
KDO1 181225Z 16006KT 24/20 A2995 RMK A01 T02380195  RH  076%=      5-min Rain = 0
KDO1 181226Z 16006KT 24/20 A2995 RMK A01 T02400195  RH  076%=      5-min Rain = 0
KDO1 181227Z 16006KT 24/20 A2995 RMK A01 T02400195  RH  076%=      5-min Rain = 0
KDO1 181228Z 16007KT 24/20 A2995 RMK A01 T02410195  RH  075%=      5-min Rain = 0
KDO1 181229Z 16006KT 24/20 A2995 RMK A01 T02420195  RH  075%=      5-min Rain = 0
KDO1 181230Z 17007KT 24/20 A2995 RMK A01 T02420195  RH  075%=      5-min Rain = 0
KDO1 181231Z 17006KT 24/19 A2995 RMK A01 T02430194  RH  074%=      5-min Rain = 0
KDO1 181232Z 17006KT 24/20 A2995 RMK A01 T02440195  RH  074%=      5-min Rain = 0
KDO1 181233Z 17006KT 24/20 A2995 RMK A01 T02440195  RH  074%=      5-min Rain = 0
KDO1 181234Z 17007KT 25/20 A2995 RMK A01 T02450195  RH  074%=      5-min Rain = 0
KDO1 181235Z 17007KT 25/20 A2995 RMK A01 T02450195  RH  074%=      5-min Rain = 0
KDO1 181236Z 17006KT 25/20 A2995 RMK A01 T02460195  RH  073%=      5-min Rain = 0
KDO1 181237Z 16007KT 25/20 A2995 RMK A01 T02460196  RH  073%=      5-min Rain = 0
KDO1 181238Z 17008KT 25/20 A2995 RMK A01 T02470195  RH  073%=      5-min Rain = 0
KDO1 181239Z 16008KT 25/20 A2995 RMK A01 T02480195  RH  072%=      5-min Rain = 0
KDO1 181240Z 17006KT 25/20 A2995 RMK A01 T02480195  RH  072%=      5-min Rain = 0
KDO1 181241Z 16007KT 25/20 A2995 RMK A01 T02490196  RH  072%=      5-min Rain = 0
KDO1 181242Z 17007KT 25/20 A2995 RMK A01 T02500195  RH  072%=      5-min Rain = 0
KDO1 181243Z 17007KT 25/20 A2995 RMK A01 T02500195  RH  072%=      5-min Rain = 0
KDO1 181244Z 17006KT 25/20 A2995 RMK A01 T02510196  RH  072%=      5-min Rain = 0
KDO1 181245Z 17008KT 25/20 A2995 RMK A01 T02510196  RH  071%=      5-min Rain = 0
KDO1 181246Z 16007KT 25/20 A2995 RMK A01 T02510196  RH  071%=      5-min Rain = 0
KDO1 181247Z 17008KT 25/20 A2995 RMK A01 T02520196  RH  071%=      5-min Rain = 0
KDO1 181248Z 17008KT 25/20 A2995 RMK A01 T02520196  RH  071%=      5-min Rain = 0
KDO1 181249Z 17006KT 25/20 A2995 RMK A01 T02520196  RH  071%=      5-min Rain = 0
KDO1 181250Z 17007KT 25/20 A2995 RMK A01 T02530196  RH  071%=      5-min Rain = 0
KDO1 181251Z 17007KT 25/20 A2995 RMK A01 T02530196  RH  071%=      5-min Rain = 0
KDO1 181252Z 17009KT 25/20 A2995 RMK A01 T02540196  RH  070%=      5-min Rain = 0
KDO1 181253Z 18009KT 26/20 A2995 RMK A01 T02550196  RH  070%=      5-min Rain = 0
KDO1 181254Z 17007KT 26/20 A2995 RMK A01 T02550196  RH  070%=      5-min Rain = 0
KDO1 181255Z 17008KT 26/20 A2995 RMK A01 T02550196  RH  070%=      5-min Rain = 0
KDO1 181256Z 17008KT 26/20 A2995 RMK A01 T02560196  RH  069%=      5-min Rain = 0
KDO1 181257Z 18009KT 26/20 A2995 RMK A01 T02560196  RH  069%=      5-min Rain = 0
KDO1 181258Z 17009KT 26/20 A2995 RMK A01 T02560196  RH  069%=      5-min Rain = 0
KDO1 181259Z 17008KT 26/20 A2995 RMK A01 T02570196  RH  069%=      5-min Rain = 0
KDO1 181300Z 17009KT 26/20 A2995 RMK A01 T02570196  RH  069%=      5-min Rain = 0
KDO1 181301Z 17009KT 26/20 A2995 RMK A01 T02580196  RH  069%=      5-min Rain = 0
KDO1 181302Z 17007KT 26/20 A2995 RMK A01 T02580197  RH  069%=      5-min Rain = 0
KDO1 181303Z 17007KT 26/20 A2995 RMK A01 T02590198  RH  069%=      5-min Rain = 0
KDO1 181304Z 17008KT 26/20 A2995 RMK A01 T02600197  RH  068%=      5-min Rain = 0
KDO1 181305Z 18008KT 26/20 A2995 RMK A01 T02600197  RH  068%=      5-min Rain = 0
KDO1 181306Z 18007KT 26/20 A2995 RMK A01 T02600197  RH  068%=      5-min Rain = 0
KDO1 181307Z 18008KT 26/20 A2995 RMK A01 T02610198  RH  068%=      5-min Rain = 0
KDO1 181308Z 17008KT 26/20 A2995 RMK A01 T02620198  RH  068%=      5-min Rain = 0
KDO1 181309Z 18011KT 26/20 A2995 RMK A01 T02630197  RH  067%=      5-min Rain = 0
KDO1 181310Z 17010KT 26/20 A2995 RMK A01 T02630197  RH  067%=      5-min Rain = 0
KDO1 181311Z 18010KT 26/20 A2995 RMK A01 T02620197  RH  067%=      5-min Rain = 0
KDO1 181312Z 17008KT 26/20 A2995 RMK A01 T02620197  RH  067%=      5-min Rain = 0
KDO1 181313Z 18008KT 26/20 A2995 RMK A01 T02630198  RH  067%=      5-min Rain = 0
KDO1 181314Z 18011KT 26/20 A2995 RMK A01 T02630197  RH  067%=      5-min Rain = 0
KDO1 181315Z 18009KT 26/20 A2995 RMK A01 T02640197  RH  067%=      5-min Rain = 0
KDO1 181316Z 18007KT 26/20 A2995 RMK A01 T02640197  RH  067%=      5-min Rain = 0
KDO1 181317Z 17008KT 27/20 A2995 RMK A01 T02650198  RH  067%=      5-min Rain = 0
KDO1 181318Z 17009KT 27/20 A2995 RMK A01 T02660198  RH  066%=      5-min Rain = 0
KDO1 181319Z 18008KT 27/20 A2995 RMK A01 T02660198  RH  066%=      5-min Rain = 0
KDO1 181320Z 18007KT 27/20 A2995 RMK A01 T02670198  RH  066%=      5-min Rain = 0
KDO1 181321Z 18007KT 27/20 A2995 RMK A01 T02670198  RH  066%=      5-min Rain = 0
KDO1 181322Z 18010KT 27/20 A2995 RMK A01 T02680199  RH  066%=      5-min Rain = 0
KDO1 181323Z 18011KT 27/20 A2995 RMK A01 T02690197  RH  065%=      5-min Rain = 0
KDO1 181324Z 18011KT 27/20 A2995 RMK A01 T02680197  RH  065%=      5-min Rain = 0
KDO1 181325Z 19012KT 27/20 A2995 RMK A01 T02680196  RH  065%=      5-min Rain = 0
KDO1 181326Z 18008KT 27/20 A2995 RMK A01 T02680197  RH  065%=      5-min Rain = 0
KDO1 181327Z 18010KT 27/20 A2995 RMK A01 T02670198  RH  066%=      5-min Rain = 0
KDO1 181328Z 19008KT 27/20 A2995 RMK A01 T02680198  RH  065%=      5-min Rain = 0
KDO1 181329Z 18010KT 27/20 A2995 RMK A01 T02690198  RH  065%=      5-min Rain = 0
KDO1 181330Z 18011KT 27/20 A2995 RMK A01 T02700197  RH  065%=      5-min Rain = 0
KDO1 181331Z 19012KT 27/20 A2995 RMK A01 T02700197  RH  065%=      5-min Rain = 0
KDO1 181332Z 18011KT 27/20 A2995 RMK A01 T02690197  RH  065%=      5-min Rain = 0
KDO1 181333Z 19013KT 27/20 A2995 RMK A01 T02700197  RH  064%=      5-min Rain = 0
KDO1 181334Z 18008KT 27/20 A2995 RMK A01 T02700197  RH  065%=      5-min Rain = 0
KDO1 181335Z 18011KT 27/20 A2995 RMK A01 T02700198  RH  065%=      5-min Rain = 0
KDO1 181336Z 18011KT 27/20 A2995 RMK A01 T02710198  RH  064%=      5-min Rain = 0
KDO1 181337Z 18008KT 27/20 A2995 RMK A01 T02710198  RH  064%=      5-min Rain = 0
KDO1 181338Z 17009KT 27/20 A2995 RMK A01 T02720199  RH  064%=      5-min Rain = 0
KDO1 181339Z 18011KT 27/20 A2995 RMK A01 T02730198  RH  063%=      5-min Rain = 0
KDO1 181340Z 19010KT 27/20 A2995 RMK A01 T02740198  RH  063%=      5-min Rain = 0
KDO1 181341Z 18009KT 27/20 A2995 RMK A01 T02740198  RH  063%=      5-min Rain = 0
KDO1 181342Z 18010KT 27/20 A2995 RMK A01 T02740199  RH  064%=      5-min Rain = 0
KDO1 181343Z 18011KT 27/20 A2995 RMK A01 T02740198  RH  063%=      5-min Rain = 0
KDO1 181344Z 18011KT 28/20 A2995 RMK A01 T02750198  RH  063%=      5-min Rain = 0
KDO1 181345Z 18011KT 28/20 A2995 RMK A01 T02750198  RH  063%=      5-min Rain = 0
KDO1 181346Z 18010KT 28/20 A2995 RMK A01 T02750198  RH  063%=      5-min Rain = 0
KDO1 181347Z 19010KT 28/20 A2995 RMK A01 T02750199  RH  063%=      5-min Rain = 0
KDO1 181348Z 19012KT 28/20 A2995 RMK A01 T02750198  RH  063%=      5-min Rain = 0
KDO1 181349Z 19010KT 28/20 A2995 RMK A01 T02750198  RH  063%=      5-min Rain = 0
KDO1 181350Z 17009KT 28/20 A2995 RMK A01 T02750200  RH  063%=      5-min Rain = 0
KDO1 181351Z 17009KT 28/20 A2995 RMK A01 T02760200  RH  063%=      5-min Rain = 0
KDO1 181352Z 17010KT 28/20 A2995 RMK A01 T02780199  RH  062%=      5-min Rain = 0
KDO1 181353Z 17010KT 28/20 A2995 RMK A01 T02780200  RH  062%=      5-min Rain = 0
KDO1 181354Z 17010KT 28/20 A2995 RMK A01 T02790200  RH  062%=      5-min Rain = 0
KDO1 181355Z 17013KT 28/20 A2995 RMK A01 T02800199  RH  062%=      5-min Rain = 0
KDO1 181356Z 18011KT 28/20 A2995 RMK A01 T02800199  RH  061%=      5-min Rain = 0
KDO1 181357Z 18010KT 28/20 A2995 RMK A01 T02800199  RH  061%=      5-min Rain = 0
KDO1 181358Z 17010KT 28/20 A2995 RMK A01 T02800200  RH  062%=      5-min Rain = 0
KDO1 181359Z 17009KT 28/20 A2995 RMK A01 T02810200  RH  062%=      5-min Rain = 0
KDO1 181400Z 17009KT 28/20 A2994 RMK A01 T02810201  RH  062%=      5-min Rain = 0
KDO1 181401Z 17010KT 28/20 A2994 RMK A01 T02820201  RH  061%=      5-min Rain = 0
KDO1 181402Z 17010KT 28/20 A2994 RMK A01 T02830200  RH  061%=      5-min Rain = 0
KDO1 181403Z 18008KT 28/20 A2994 RMK A01 T02830202  RH  061%=      5-min Rain = 0
KDO1 181404Z 18009KT 28/20 A2994 RMK A01 T02840202  RH  061%=      5-min Rain = 0
KDO1 181405Z 18012KT 29/20 A2994 RMK A01 T02850201  RH  061%=      5-min Rain = 0
KDO1 181406Z 18010G15KT 29/20 A2995 RMK A01 T02850200  RH  060%=      5-min Rain = 0
KDO1 181407Z 17012KT 29/20 A2995 RMK A01 T02850200  RH  060%=      5-min Rain = 0
KDO1 181408Z 17013KT 29/20 A2994 RMK A01 T02850200  RH  060%=      5-min Rain = 0
KDO1 181409Z 19012KT 28/20 A2994 RMK A01 T02840200  RH  060%=      5-min Rain = 0
KDO1 181410Z 19013KT 28/20 A2994 RMK A01 T02840200  RH  061%=      5-min Rain = 0
KDO1 181411Z 19012KT 28/20 A2994 RMK A01 T02840200  RH  061%=      5-min Rain = 0
KDO1 181412Z 18011KT 28/20 A2994 RMK A01 T02840200  RH  061%=      5-min Rain = 0
KDO1 181413Z 18011KT 29/20 A2994 RMK A01 T02850201  RH  060%=      5-min Rain = 0
KDO1 181414Z 20010KT 29/20 A2994 RMK A01 T02860201  RH  060%=      5-min Rain = 0
KDO1 181415Z 19011KT 29/20 A2994 RMK A01 T02870200  RH  059%=      5-min Rain = 0
KDO1 181416Z 19012KT 29/20 A2994 RMK A01 T02880200  RH  059%=      5-min Rain = 0
KDO1 181417Z 19012KT 29/20 A2994 RMK A01 T02870201  RH  059%=      5-min Rain = 0
KDO1 181418Z 18012KT 29/20 A2994 RMK A01 T02870201  RH  060%=      5-min Rain = 0
KDO1 181419Z 19012KT 29/20 A2994 RMK A01 T02880200  RH  059%=      5-min Rain = 0
KDO1 181420Z 18011KT 29/20 A2994 RMK A01 T02890200  RH  059%=      5-min Rain = 0
KDO1 181421Z 18013KT 29/20 A2994 RMK A01 T02890199  RH  058%=      5-min Rain = 0
KDO1 181422Z 18012KT 29/20 A2994 RMK A01 T02890200  RH  059%=      5-min Rain = 0
KDO1 181423Z 17012KT 29/20 A2994 RMK A01 T02890201  RH  059%=      5-min Rain = 0
KDO1 181424Z 18011KT 29/20 A2994 RMK A01 T02900202  RH  059%=      5-min Rain = 0
KDO1 181425Z 19009KT 29/20 A2994 RMK A01 T02910203  RH  059%=      5-min Rain = 0
KDO1 181426Z 19012G17KT 29/20 A2994 RMK A01 T02920202  RH  058%=      5-min Rain = 0
KDO1 181427Z 18014KT 29/20 A2994 RMK A01 T02920200  RH  058%=      5-min Rain = 0
KDO1 181428Z 18013KT 29/20 A2994 RMK A01 T02920200  RH  058%=      5-min Rain = 0
KDO1 181429Z 18013KT 29/20 A2994 RMK A01 T02920201  RH  058%=      5-min Rain = 0
KDO1 181430Z 18012G17KT 29/20 A2994 RMK A01 T02920201  RH  058%=      5-min Rain = 0
KDO1 181431Z 18016KT 29/20 A2994 RMK A01 T02930200  RH  057%=      5-min Rain = 0
KDO1 181432Z 18015KT 29/20 A2994 RMK A01 T02920199  RH  057%=      5-min Rain = 0
KDO1 181433Z 20015KT 29/20 A2994 RMK A01 T02920199  RH  058%=      5-min Rain = 0
KDO1 181434Z 19013KT 29/20 A2994 RMK A01 T02910199  RH  058%=      5-min Rain = 0
KDO1 181435Z 18012KT 29/20 A2994 RMK A01 T02900199  RH  058%=      5-min Rain = 0
KDO1 181436Z 18013KT 29/20 A2994 RMK A01 T02920200  RH  058%=      5-min Rain = 0
KDO1 181437Z 19013KT 29/20 A2994 RMK A01 T02920200  RH  057%=      5-min Rain = 0
KDO1 181438Z 19013KT 29/20 A2994 RMK A01 T02930201  RH  057%=      5-min Rain = 0
KDO1 181439Z 19014KT 29/20 A2994 RMK A01 T02930198  RH  057%=      5-min Rain = 0
KDO1 181440Z 20011KT 29/20 A2994 RMK A01 T02930200  RH  057%=      5-min Rain = 0
KDO1 181441Z 19011KT 29/20 A2994 RMK A01 T02940200  RH  057%=      5-min Rain = 0
KDO1 181442Z 18011G18KT 30/20 A2994 RMK A01 T02960202  RH  057%=      5-min Rain = 0
KDO1 181443Z 18015KT 30/20 A2994 RMK A01 T02970200  RH  056%=      5-min Rain = 0
KDO1 181444Z 18014KT 30/20 A2994 RMK A01 T02970200  RH  056%=      5-min Rain = 0
KDO1 181445Z 18013KT 30/20 A2994 RMK A01 T02970199  RH  056%=      5-min Rain = 0
KDO1 181446Z 18014KT 30/20 A2994 RMK A01 T02960200  RH  056%=      5-min Rain = 0
KDO1 181447Z 19013KT 30/20 A2994 RMK A01 T02960201  RH  057%=      5-min Rain = 0
KDO1 181448Z 19011G16KT 30/20 A2994 RMK A01 T02960201  RH  057%=      5-min Rain = 0
KDO1 181449Z 19010KT 30/20 A2994 RMK A01 T02970202  RH  057%=      5-min Rain = 0
KDO1 181450Z 19011G16KT 30/20 A2994 RMK A01 T02990202  RH  056%=      5-min Rain = 0
KDO1 181451Z 17010G15KT 30/20 A2994 RMK A01 T03010203  RH  056%=      5-min Rain = 0
KDO1 181452Z 18016KT 30/20 A2994 RMK A01 T03020201  RH  055%=      5-min Rain = 0
KDO1 181453Z 18013KT 30/20 A2994 RMK A01 T03020201  RH  055%=      5-min Rain = 0
KDO1 181454Z 19014KT 30/20 A2994 RMK A01 T03010201  RH  055%=      5-min Rain = 0
KDO1 181455Z 19012KT 30/20 A2994 RMK A01 T03000201  RH  055%=      5-min Rain = 0
KDO1 181456Z 18012KT 30/20 A2994 RMK A01 T02990202  RH  056%=      5-min Rain = 0
KDO1 181457Z 18015KT 30/20 A2994 RMK A01 T03000202  RH  055%=      5-min Rain = 0
KDO1 181458Z 19013KT 30/20 A2994 RMK A01 T03010200  RH  055%=      5-min Rain = 0
KDO1 181459Z 19014KT 30/20 A2994 RMK A01 T03010199  RH  054%=      5-min Rain = 0
KDO1 181500Z 20013KT 30/20 A2994 RMK A01 T03010200  RH  055%=      5-min Rain = 0
KDO1 181501Z 20013KT 30/20 A2994 RMK A01 T03010201  RH  055%=      5-min Rain = 0
KDO1 181502Z 19013KT 30/20 A2994 RMK A01 T03010201  RH  055%=      5-min Rain = 0
KDO1 181503Z 20012KT 30/20 A2994 RMK A01 T03030201  RH  055%=      5-min Rain = 0
KDO1 181504Z 20013KT 30/20 A2994 RMK A01 T03030201  RH  054%=      5-min Rain = 0
KDO1 181505Z 20013G18KT 30/20 A2994 RMK A01 T03030199  RH  054%=      5-min Rain = 0
KDO1 181506Z 18012G20KT 30/20 A2994 RMK A01 T03020201  RH  055%=      5-min Rain = 0
KDO1 181507Z 19010KT 30/20 A2994 RMK A01 T03030202  RH  055%=      5-min Rain = 0
KDO1 181508Z 20011KT 31/20 A2994 RMK A01 T03050201  RH  054%=      5-min Rain = 0
KDO1 181509Z 20011KT 31/20 A2994 RMK A01 T03050202  RH  054%=      5-min Rain = 0
KDO1 181510Z 20012KT 31/20 A2994 RMK A01 T03060201  RH  054%=      5-min Rain = 0
KDO1 181511Z 19011KT 31/20 A2994 RMK A01 T03060203  RH  054%=      5-min Rain = 0
KDO1 181512Z 17011KT 31/20 A2994 RMK A01 T03080204  RH  054%=      5-min Rain = 0
KDO1 181513Z 17011KT 31/20 A2994 RMK A01 T03080202  RH  053%=      5-min Rain = 0
KDO1 181514Z 18010KT 31/20 A2994 RMK A01 T03090203  RH  053%=      5-min Rain = 0
KDO1 181515Z 18013G19KT 31/20 A2994 RMK A01 T03100202  RH  053%=      5-min Rain = 0
KDO1 181516Z 18011G16KT 31/20 A2994 RMK A01 T03100203  RH  053%=      5-min Rain = 0
KDO1 181517Z 19013KT 31/20 A2994 RMK A01 T03090201  RH  053%=      5-min Rain = 0
KDO1 181518Z 19011G16KT 31/20 A2994 RMK A01 T03070202  RH  054%=      5-min Rain = 0
KDO1 181519Z 19014KT 31/20 A2994 RMK A01 T03080201  RH  053%=      5-min Rain = 0
KDO1 181520Z 20013KT 31/20 A2994 RMK A01 T03080200  RH  053%=      5-min Rain = 0
KDO1 181521Z 21012KT 31/20 A2994 RMK A01 T03080201  RH  053%=      5-min Rain = 0
KDO1 181522Z 20012KT 31/20 A2994 RMK A01 T03080200  RH  053%=      5-min Rain = 0
KDO1 181523Z 21013KT 31/20 A2994 RMK A01 T03080200  RH  053%=      5-min Rain = 0
KDO1 181524Z 20010KT 31/20 A2994 RMK A01 T03070200  RH  053%=      5-min Rain = 0
KDO1 181525Z 19013KT 31/20 A2994 RMK A01 T03080203  RH  054%=      5-min Rain = 0
KDO1 181526Z 17013KT 31/20 A2994 RMK A01 T03100202  RH  053%=      5-min Rain = 0
KDO1 181527Z 18013G18KT 31/20 A2993 RMK A01 T03100202  RH  052%=      5-min Rain = 0
KDO1 181528Z 17013KT 31/20 A2993 RMK A01 T03100203  RH  053%=      5-min Rain = 0
KDO1 181529Z 17012KT 31/20 A2993 RMK A01 T03110202  RH  052%=      5-min Rain = 0
KDO1 181530Z 16016KT 31/20 A2993 RMK A01 T03110201  RH  052%=      5-min Rain = 0
KDO1 181531Z 18014KT 31/20 A2993 RMK A01 T03100201  RH  052%=      5-min Rain = 0
KDO1 181532Z 19012KT 31/20 A2993 RMK A01 T03090202  RH  053%=      5-min Rain = 0
KDO1 181533Z 19011KT 31/20 A2993 RMK A01 T03090200  RH  052%=      5-min Rain = 0
KDO1 181534Z 19011G16KT 31/20 A2993 RMK A01 T03090201  RH  053%=      5-min Rain = 0
KDO1 181535Z 19012KT 31/20 A2993 RMK A01 T03100203  RH  053%=      5-min Rain = 0
KDO1 181536Z 17012KT 31/20 A2993 RMK A01 T03120203  RH  052%=      5-min Rain = 0
KDO1 181537Z 18012KT 31/20 A2993 RMK A01 T03140203  RH  052%=      5-min Rain = 0
KDO1 181538Z 19013KT 32/20 A2993 RMK A01 T03150203  RH  051%=      5-min Rain = 0
KDO1 181539Z 18012KT 32/20 A2993 RMK A01 T03150202  RH  051%=      5-min Rain = 0
KDO1 181540Z 19011KT 31/20 A2993 RMK A01 T03140202  RH  051%=      5-min Rain = 0
KDO1 181541Z 19013KT 31/20 A2993 RMK A01 T03140201  RH  051%=      5-min Rain = 0
KDO1 181542Z 18010KT 31/20 A2993 RMK A01 T03140202  RH  051%=      5-min Rain = 0
KDO1 181543Z 17011G16KT 31/20 A2993 RMK A01 T03130203  RH  052%=      5-min Rain = 0
KDO1 181544Z 19012KT 32/20 A2993 RMK A01 T03160204  RH  052%=      5-min Rain = 0
KDO1 181545Z 18010KT 32/20 A2993 RMK A01 T03170204  RH  051%=      5-min Rain = 0
KDO1 181546Z 18013G18KT 32/20 A2993 RMK A01 T03190204  RH  051%=      5-min Rain = 0
KDO1 181547Z 18014KT 32/20 A2993 RMK A01 T03220202  RH  049%=      5-min Rain = 0
KDO1 181548Z 19012G17KT 32/20 A2993 RMK A01 T03220201  RH  049%=      5-min Rain = 0
KDO1 181549Z 19013KT 32/20 A2993 RMK A01 T03210203  RH  050%=      5-min Rain = 0
KDO1 181550Z 20014KT 32/20 A2993 RMK A01 T03200203  RH  050%=      5-min Rain = 0
KDO1 181551Z 20014KT 32/20 A2993 RMK A01 T03190201  RH  049%=      5-min Rain = 0
KDO1 181552Z 20012KT 32/20 A2993 RMK A01 T03180200  RH  050%=      5-min Rain = 0
KDO1 181553Z 20013KT 32/20 A2993 RMK A01 T03170200  RH  050%=      5-min Rain = 0
KDO1 181554Z 19013KT 32/20 A2993 RMK A01 T03180200  RH  050%=      5-min Rain = 0
KDO1 181555Z 20010G15KT 32/20 A2993 RMK A01 T03190201  RH  050%=      5-min Rain = 0
KDO1 181556Z 21013KT 32/20 A2993 RMK A01 T03200202  RH  049%=      5-min Rain = 0
KDO1 181557Z 21014KT 32/20 A2993 RMK A01 T03210201  RH  049%=      5-min Rain = 0
KDO1 181558Z 20013KT 32/20 A2993 RMK A01 T03210202  RH  049%=      5-min Rain = 0
KDO1 181559Z 19012KT 32/20 A2993 RMK A01 T03210202  RH  049%=      5-min Rain = 0
KDO1 181600Z 18012KT 32/20 A2993 RMK A01 T03210201  RH  049%=      5-min Rain = 0
KDO1 181601Z 19010G15KT 32/20 A2993 RMK A01 T03220203  RH  050%=      5-min Rain = 0
KDO1 181602Z 18012G18KT 33/21 A2993 RMK A01 T03250205  RH  049%=      5-min Rain = 0
KDO1 181603Z 19015KT 33/20 A2993 RMK A01 T03270203  RH  048%=      5-min Rain = 0
KDO1 181604Z 19013KT 32/20 A2993 RMK A01 T03240201  RH  048%=      5-min Rain = 0
KDO1 181605Z 19014KT 32/20 A2993 RMK A01 T03230201  RH  049%=      5-min Rain = 0
KDO1 181606Z 19011KT 32/20 A2993 RMK A01 T03230201  RH  049%=      5-min Rain = 0
KDO1 181607Z 19010KT 32/20 A2993 RMK A01 T03220203  RH  049%=      5-min Rain = 0
KDO1 181608Z 19009KT 32/21 A2993 RMK A01 T03240205  RH  050%=      5-min Rain = 0
KDO1 181609Z 18008KT 33/21 A2993 RMK A01 T03270205  RH  049%=      5-min Rain = 0
KDO1 181610Z 17010KT 33/21 A2993 RMK A01 T03300207  RH  048%=      5-min Rain = 0
KDO1 181611Z 18013KT 33/21 A2993 RMK A01 T03320205  RH  048%=      5-min Rain = 0
KDO1 181612Z 18012KT 33/20 A2993 RMK A01 T03320203  RH  047%=      5-min Rain = 0
KDO1 181613Z 20010KT 33/20 A2993 RMK A01 T03310204  RH  047%=      5-min Rain = 0
KDO1 181614Z 18008KT 33/20 A2993 RMK A01 T03310204  RH  047%=      5-min Rain = 0
KDO1 181615Z 19012G17KT 33/20 A2993 RMK A01 T03310204  RH  047%=      5-min Rain = 0
KDO1 181616Z 19011KT 33/20 A2993 RMK A01 T03310204  RH  047%=      5-min Rain = 0
KDO1 181617Z 18014KT 33/20 A2993 RMK A01 T03320202  RH  047%=      5-min Rain = 0
KDO1 181618Z 18014G19KT 33/20 A2993 RMK A01 T03300201  RH  047%=      5-min Rain = 0
KDO1 181619Z 19015KT 33/20 A2993 RMK A01 T03280202  RH  048%=      5-min Rain = 0
KDO1 181620Z 18013KT 33/20 A2993 RMK A01 T03280202  RH  047%=      5-min Rain = 0
KDO1 181621Z 18013KT 33/20 A2993 RMK A01 T03280200  RH  047%=      5-min Rain = 0
KDO1 181622Z 19011G16KT 33/20 A2993 RMK A01 T03270201  RH  047%=      5-min Rain = 0
KDO1 181623Z 19012KT 33/20 A2993 RMK A01 T03280201  RH  047%=      5-min Rain = 0
KDO1 181624Z 18010KT 33/20 A2993 RMK A01 T03280202  RH  048%=      5-min Rain = 0
KDO1 181625Z 18011G16KT 33/20 A2993 RMK A01 T03300203  RH  047%=      5-min Rain = 0
KDO1 181626Z 17015KT 33/20 A2993 RMK A01 T03320203  RH  047%=      5-min Rain = 0
KDO1 181627Z 17012KT 33/20 A2993 RMK A01 T03310202  RH  047%=      5-min Rain = 0
KDO1 181628Z 16014KT 33/20 A2992 RMK A01 T03310203  RH  047%=      5-min Rain = 0
KDO1 181629Z 17015KT 33/20 A2993 RMK A01 T03310201  RH  047%=      5-min Rain = 0
KDO1 181630Z 17010KT 33/20 A2992 RMK A01 T03310201  RH  046%=      5-min Rain = 0
KDO1 181631Z 17011KT 33/20 A2992 RMK A01 T03310203  RH  047%=      5-min Rain = 0
KDO1 181632Z 17013G18KT 33/20 A2992 RMK A01 T03320203  RH  047%=      5-min Rain = 0
KDO1 181633Z 17015KT 33/20 A2992 RMK A01 T03340200  RH  045%=      5-min Rain = 0
KDO1 181634Z 19013G19KT 33/20 A2992 RMK A01 T03340200  RH  045%=      5-min Rain = 0
KDO1 181635Z 19015KT 33/20 A2992 RMK A01 T03330201  RH  046%=      5-min Rain = 0
KDO1 181636Z 17010KT 33/20 A2992 RMK A01 T03330203  RH  046%=      5-min Rain = 0
KDO1 181637Z 18015KT 34/20 A2992 RMK A01 T03360202  RH  046%=      5-min Rain = 0
KDO1 181638Z 17015KT 34/20 A2992 RMK A01 T03370203  RH  046%=      5-min Rain = 0
KDO1 181639Z 17012KT 34/20 A2992 RMK A01 T03370204  RH  046%=      5-min Rain = 0
KDO1 181640Z 17013KT 34/20 A2992 RMK A01 T03370203  RH  046%=      5-min Rain = 0
KDO1 181641Z 18016KT 34/20 A2992 RMK A01 T03380202  RH  045%=      5-min Rain = 0
KDO1 181642Z 17013KT 34/20 A2992 RMK A01 T03370200  RH  045%=      5-min Rain = 0
KDO1 181643Z 18010KT 34/20 A2992 RMK A01 T03360202  RH  045%=      5-min Rain = 0
KDO1 181644Z 19012G18KT 34/20 A2992 RMK A01 T03360202  RH  045%=      5-min Rain = 0
KDO1 181645Z 17016G21KT 34/20 A2992 RMK A01 T03380203  RH  045%=      5-min Rain = 0
KDO1 181646Z 19014KT 34/20 A2992 RMK A01 T03390203  RH  045%=      5-min Rain = 0
KDO1 181647Z 19012KT 34/20 A2992 RMK A01 T03390204  RH  045%=      5-min Rain = 0
KDO1 181648Z 18009KT 34/21 A2992 RMK A01 T03410206  RH  046%=      5-min Rain = 0
KDO1 181649Z 17014KT 34/21 A2992 RMK A01 T03430205  RH  044%=      5-min Rain = 0
KDO1 181650Z 17013KT 34/21 A2992 RMK A01 T03420205  RH  045%=      5-min Rain = 0
KDO1 181651Z 17009KT 34/21 A2992 RMK A01 T03410206  RH  045%=      5-min Rain = 0
KDO1 181652Z 18011G17KT 34/21 A2992 RMK A01 T03410205  RH  045%=      5-min Rain = 0
KDO1 181653Z 20015KT 34/20 A2992 RMK A01 T03410201  RH  044%=      5-min Rain = 0
KDO1 181654Z 21014KT 34/20 A2992 RMK A01 T03410200  RH  044%=      5-min Rain = 0
KDO1 181655Z 18013G18KT 34/20 A2992 RMK A01 T03400202  RH  045%=      5-min Rain = 0
KDO1 181656Z 17013G19KT 34/20 A2992 RMK A01 T03420202  RH  044%=      5-min Rain = 0
KDO1 181657Z 17012KT 34/20 A2992 RMK A01 T03420204  RH  044%=      5-min Rain = 0
KDO1 181658Z 18015KT 34/20 A2992 RMK A01 T03430204  RH  044%=      5-min Rain = 0
KDO1 181659Z 19013KT 34/20 A2992 RMK A01 T03420203  RH  044%=      5-min Rain = 0
KDO1 181700Z 18011KT 34/20 A2992 RMK A01 T03400202  RH  044%=      5-min Rain = 0
KDO1 181701Z 17012KT 34/20 A2992 RMK A01 T03390202  RH  045%=      5-min Rain = 0
KDO1 181702Z 17009KT 34/20 A2992 RMK A01 T03390203  RH  045%=      5-min Rain = 0
KDO1 181703Z 19010G15KT 34/21 A2992 RMK A01 T03420206  RH  045%=      5-min Rain = 0
KDO1 181704Z 20012KT 35/21 A2992 RMK A01 T03470205  RH  044%=      5-min Rain = 0
KDO1 181705Z 18015KT 35/21 A2992 RMK A01 T03480205  RH  043%=      5-min Rain = 0
KDO1 181706Z 17015KT 35/21 A2992 RMK A01 T03480206  RH  044%=      5-min Rain = 0
KDO1 181707Z 17012KT 35/21 A2992 RMK A01 T03460206  RH  044%=      5-min Rain = 0
KDO1 181708Z 17013KT 34/21 A2992 RMK A01 T03440205  RH  044%=      5-min Rain = 0
KDO1 181709Z 17010KT 34/21 A2992 RMK A01 T03430205  RH  045%=      5-min Rain = 0
KDO1 181710Z 17014G20KT 35/21 A2992 RMK A01 T03450207  RH  045%=      5-min Rain = 0
KDO1 181711Z 18016KT 35/20 A2992 RMK A01 T03470204  RH  043%=      5-min Rain = 0
KDO1 181712Z 17013KT 35/21 A2992 RMK A01 T03460205  RH  044%=      5-min Rain = 0
KDO1 181713Z 18010KT 35/21 A2992 RMK A01 T03460205  RH  044%=      5-min Rain = 0
KDO1 181714Z 18009KT 35/21 A2992 RMK A01 T03460207  RH  044%=      5-min Rain = 0
KDO1 181715Z 17012KT 35/21 A2992 RMK A01 T03480207  RH  044%=      5-min Rain = 0
KDO1 181716Z 17017G22KT 35/21 A2992 RMK A01 T03490206  RH  043%=      5-min Rain = 0
KDO1 181717Z 18014G20KT 35/20 A2992 RMK A01 T03480203  RH  043%=      5-min Rain = 0
KDO1 181718Z 18013KT 35/20 A2992 RMK A01 T03470203  RH  043%=      5-min Rain = 0
KDO1 181719Z 18012KT 35/20 A2992 RMK A01 T03470203  RH  043%=      5-min Rain = 0
KDO1 181720Z 17008KT 35/20 A2991 RMK A01 T03460204  RH  043%=      5-min Rain = 0
KDO1 181721Z 16009KT 35/21 A2991 RMK A01 T03490208  RH  044%=      5-min Rain = 0
KDO1 181722Z 18013KT 35/21 A2991 RMK A01 T03530209  RH  043%=      5-min Rain = 0
KDO1 181723Z 18014KT 35/21 A2992 RMK A01 T03540206  RH  042%=      5-min Rain = 0
KDO1 181724Z 16010KT 35/20 A2991 RMK A01 T03490204  RH  043%=      5-min Rain = 0
KDO1 181725Z 17010G18KT 35/21 A2991 RMK A01 T03480206  RH  044%=      5-min Rain = 0
KDO1 181726Z 16015KT 35/21 A2991 RMK A01 T03510206  RH  043%=      5-min Rain = 0
KDO1 181727Z 18016KT 35/21 A2991 RMK A01 T03530206  RH  042%=      5-min Rain = 0
KDO1 181728Z 18014KT 35/21 A2991 RMK A01 T03520205  RH  042%=      5-min Rain = 0
KDO1 181729Z 17013KT 35/21 A2991 RMK A01 T03500206  RH  043%=      5-min Rain = 0
KDO1 181730Z 16013KT 35/21 A2991 RMK A01 T03510208  RH  043%=      5-min Rain = 0
KDO1 181731Z 16015KT 35/21 A2991 RMK A01 T03540208  RH  043%=      5-min Rain = 0
KDO1 181732Z 17011KT 35/21 A2991 RMK A01 T03540206  RH  042%=      5-min Rain = 0
KDO1 181733Z 17011KT 35/21 A2991 RMK A01 T03530206  RH  042%=      5-min Rain = 0
KDO1 181734Z 17011KT 35/21 A2991 RMK A01 T03520205  RH  042%=      5-min Rain = 0
KDO1 181735Z 18013KT 35/21 A2991 RMK A01 T03500206  RH  043%=      5-min Rain = 0
KDO1 181736Z 19013KT 35/21 A2991 RMK A01 T03510206  RH  043%=      5-min Rain = 0
KDO1 181737Z 19012G17KT 35/21 A2991 RMK A01 T03520205  RH  042%=      5-min Rain = 0
KDO1 181738Z 19011KT 36/21 A2991 RMK A01 T03550206  RH  042%=      5-min Rain = 0
KDO1 181739Z 16009G15KT 36/21 A2991 RMK A01 T03580208  RH  042%=      5-min Rain = 0
KDO1 181740Z 16012KT 36/21 A2991 RMK A01 T03600209  RH  042%=      5-min Rain = 0
KDO1 181741Z 14011G17KT 36/21 A2991 RMK A01 T03580209  RH  042%=      5-min Rain = 0
KDO1 181742Z 15011KT 36/21 A2991 RMK A01 T03570207  RH  042%=      5-min Rain = 0
KDO1 181743Z 16011KT 36/21 A2991 RMK A01 T03560209  RH  043%=      5-min Rain = 0
KDO1 181744Z 18017KT 36/21 A2991 RMK A01 T03590209  RH  042%=      5-min Rain = 0
KDO1 181745Z 19014KT 36/21 A2991 RMK A01 T03590208  RH  042%=      5-min Rain = 0
KDO1 181746Z 18013KT 36/21 A2991 RMK A01 T03570207  RH  042%=      5-min Rain = 0
KDO1 181747Z 18010KT 36/21 A2991 RMK A01 T03570207  RH  042%=      5-min Rain = 0
KDO1 181748Z 19017KT 36/21 A2991 RMK A01 T03560209  RH  042%=      5-min Rain = 0
KDO1 181749Z 18011KT 36/21 A2991 RMK A01 T03550208  RH  042%=      5-min Rain = 0
KDO1 181750Z 17012G19KT 36/21 A2991 RMK A01 T03560209  RH  043%=      5-min Rain = 0
KDO1 181751Z 17016KT 36/21 A2991 RMK A01 T03570208  RH  042%=      5-min Rain = 0
KDO1 181752Z 17013KT 36/21 A299 RMK A01 T03550207  RH  042%=      5-min Rain = 0
KDO1 181753Z 17013KT 36/21 A299 RMK A01 T03550207  RH  042%=      5-min Rain = 0
KDO1 181754Z 19015KT 36/21 A2991 RMK A01 T03560206  RH  042%=      5-min Rain = 0
KDO1 181755Z 19013KT 36/21 A299 RMK A01 T03570207  RH  042%=      5-min Rain = 0
KDO1 181756Z 20012KT 36/21 A299 RMK A01 T03580205  RH  041%=      5-min Rain = 0
KDO1 181757Z 19013G18KT 36/20 A299 RMK A01 T03570204  RH  041%=      5-min Rain = 0
KDO1 181758Z 18012G18KT 36/20 A299 RMK A01 T03560204  RH  041%=      5-min Rain = 0
KDO1 181759Z 18013KT 36/21 A299 RMK A01 T03560206  RH  042%=      5-min Rain = 0
KDO1 181800Z 17010G15KT 36/21 A299 RMK A01 T03570207  RH  042%=      5-min Rain = 0
KDO1 181801Z 16015G20KT 36/21 A299 RMK A01 T03590207  RH  041%=      5-min Rain = 0
KDO1 181802Z 16014KT 36/21 A299 RMK A01 T03610206  RH  041%=      5-min Rain = 0
KDO1 181803Z 17012KT 36/21 A299 RMK A01 T03600207  RH  041%=      5-min Rain = 0
KDO1 181804Z 17010KT 36/21 A299 RMK A01 T03580207  RH  041%=      5-min Rain = 0
KDO1 181805Z 18011KT 36/21 A299 RMK A01 T03570208  RH  042%=      5-min Rain = 0
KDO1 181806Z 15010KT 36/21 A299 RMK A01 T03570207  RH  042%=      5-min Rain = 0
KDO1 181807Z 16013KT 36/21 A299 RMK A01 T03580205  RH  041%=      5-min Rain = 0
KDO1 181808Z 16013G19KT 36/21 A299 RMK A01 T03580205  RH  041%=      5-min Rain = 0
KDO1 181809Z 16015KT 36/21 A299 RMK A01 T03590205  RH  041%=      5-min Rain = 0
KDO1 181810Z 17014KT 36/21 A299 RMK A01 T03590205  RH  041%=      5-min Rain = 0
KDO1 181811Z 18012KT 36/21 A299 RMK A01 T03590205  RH  041%=      5-min Rain = 0
KDO1 181812Z 17014KT 36/21 A299 RMK A01 T03590206  RH  041%=      5-min Rain = 0
KDO1 181813Z 17010KT 36/21 A299 RMK A01 T03600207  RH  041%=      5-min Rain = 0
KDO1 181814Z 17010KT 36/21 A299 RMK A01 T03640210  RH  041%=      5-min Rain = 0
KDO1 181815Z 17013KT 37/21 A299 RMK A01 T03670209  RH  040%=      5-min Rain = 0
KDO1 181816Z 17015KT 37/21 A299 RMK A01 T03680206  RH  039%=      5-min Rain = 0
KDO1 181817Z 17014KT 37/21 A299 RMK A01 T03650205  RH  040%=      5-min Rain = 0
KDO1 181818Z 17015KT 36/21 A299 RMK A01 T03640206  RH  040%=      5-min Rain = 0
KDO1 181819Z 18016G23KT 36/21 A299 RMK A01 T03640205  RH  040%=      5-min Rain = 0
KDO1 181820Z 16013G18KT 36/21 A299 RMK A01 T03630206  RH  040%=      5-min Rain = 0
KDO1 181821Z 17013KT 36/21 A299 RMK A01 T03630206  RH  040%=      5-min Rain = 0
KDO1 181822Z 15012KT 37/20 A299 RMK A01 T03650204  RH  039%=      5-min Rain = 0
KDO1 181823Z 15013KT 36/21 A2989 RMK A01 T03630205  RH  040%=      5-min Rain = 0
KDO1 181824Z 16013G18KT 36/21 A2989 RMK A01 T03630206  RH  040%=      5-min Rain = 0
KDO1 181825Z 15014KT 36/21 A2989 RMK A01 T03630206  RH  040%=      5-min Rain = 0
KDO1 181826Z 18015KT 36/21 A2989 RMK A01 T03640205  RH  040%=      5-min Rain = 0
KDO1 181827Z 19016KT 36/20 A299 RMK A01 T03640204  RH  039%=      5-min Rain = 0
KDO1 181828Z 18017KT 37/20 A2989 RMK A01 T03650204  RH  039%=      5-min Rain = 0
KDO1 181829Z 19016KT 37/21 A299 RMK A01 T03650205  RH  040%=      5-min Rain = 0
KDO1 181830Z 19010KT 36/20 A2989 RMK A01 T03640203  RH  039%=      5-min Rain = 0
KDO1 181831Z 19010KT 36/21 A2989 RMK A01 T03630205  RH  040%=      5-min Rain = 0
KDO1 181832Z 16011KT 36/21 A2989 RMK A01 T03640206  RH  040%=      5-min Rain = 0
KDO1 181833Z 17011G18KT 37/21 A2989 RMK A01 T03690207  RH  039%=      5-min Rain = 0
KDO1 181834Z 18016G21KT 37/20 A2989 RMK A01 T03710204  RH  038%=      5-min Rain = 0
KDO1 181835Z 19016KT 37/20 A2989 RMK A01 T03680204  RH  038%=      5-min Rain = 0
KDO1 181836Z 18014KT 37/20 A2989 RMK A01 T03660204  RH  039%=      5-min Rain = 0
KDO1 181837Z 17015KT 37/20 A2989 RMK A01 T03650203  RH  039%=      5-min Rain = 0
KDO1 181838Z 18014G19KT 37/20 A2989 RMK A01 T03650203  RH  039%=      5-min Rain = 0
KDO1 181839Z 20017G22KT 37/20 A2989 RMK A01 T03660204  RH  039%=      5-min Rain = 0
KDO1 181840Z 19015KT 37/21 A2989 RMK A01 T03680205  RH  039%=      5-min Rain = 0
KDO1 181841Z 18013KT 37/21 A2989 RMK A01 T03690206  RH  039%=      5-min Rain = 0
KDO1 181842Z 17011KT 37/21 A2989 RMK A01 T03690205  RH  039%=      5-min Rain = 0
KDO1 181843Z 16012KT 37/21 A2989 RMK A01 T03690206  RH  039%=      5-min Rain = 0
KDO1 181844Z 17012G18KT 37/21 A2989 RMK A01 T03710209  RH  039%=      5-min Rain = 0
KDO1 181845Z 17012KT 37/21 A2989 RMK A01 T03710207  RH  039%=      5-min Rain = 0
KDO1 181846Z 16010KT 37/21 A2989 RMK A01 T03710210  RH  039%=      5-min Rain = 0
KDO1 181847Z 16013KT 38/21 A2988 RMK A01 T03750208  RH  038%=      5-min Rain = 0
KDO1 181848Z 18010KT 38/21 A2988 RMK A01 T03770207  RH  037%=      5-min Rain = 0
KDO1 181849Z 19012G17KT 38/21 A2988 RMK A01 T03800211  RH  038%=      5-min Rain = 0
KDO1 181850Z 18017KT 38/21 A2988 RMK A01 T03810209  RH  037%=      5-min Rain = 0
KDO1 181851Z 17011G16KT 38/21 A2988 RMK A01 T03760205  RH  037%=      5-min Rain = 0
KDO1 181852Z 16012G22KT 37/21 A2988 RMK A01 T03730208  RH  038%=      5-min Rain = 0
KDO1 181853Z 16015KT 37/21 A2988 RMK A01 T03740205  RH  037%=      5-min Rain = 0
KDO1 181854Z 18017KT 38/21 A2988 RMK A01 T03760205  RH  037%=      5-min Rain = 0
KDO1 181855Z 18016KT 38/20 A2988 RMK A01 T03760203  RH  037%=      5-min Rain = 0
KDO1 181856Z 17016KT 37/20 A2988 RMK A01 T03720202  RH  037%=      5-min Rain = 0
KDO1 181857Z 17015KT 37/20 A2988 RMK A01 T03710201  RH  037%=      5-min Rain = 0
KDO1 181858Z 17015KT 37/20 A2988 RMK A01 T03710204  RH  038%=      5-min Rain = 0
KDO1 181859Z 16012KT 37/20 A2988 RMK A01 T03680204  RH  039%=      5-min Rain = 0
KDO1 181900Z 15016KT 37/21 A2988 RMK A01 T03670206  RH  039%=      5-min Rain = 0
KDO1 181901Z 16014KT 37/21 A2988 RMK A01 T03680205  RH  039%=      5-min Rain = 0
KDO1 181902Z 16013G18KT 37/21 A2988 RMK A01 T03690206  RH  039%=      5-min Rain = 0
KDO1 181903Z 18012KT 37/21 A2988 RMK A01 T03740208  RH  038%=      5-min Rain = 0
KDO1 181904Z 16011G16KT 38/21 A2988 RMK A01 T03780208  RH  037%=      5-min Rain = 0
KDO1 181905Z 17012KT 38/21 A2988 RMK A01 T03780208  RH  037%=      5-min Rain = 0
KDO1 181906Z 17011KT 38/21 A2988 RMK A01 T03770209  RH  038%=      5-min Rain = 0
KDO1 181907Z 17013KT 38/21 A2988 RMK A01 T03780210  RH  038%=      5-min Rain = 0
KDO1 181908Z 19017KT 38/21 A2988 RMK A01 T03780205  RH  037%=      5-min Rain = 0
KDO1 181909Z 17012G17KT 38/20 A2988 RMK A01 T03750202  RH  037%=      5-min Rain = 0
KDO1 181910Z 16013KT 37/21 A2988 RMK A01 T03730205  RH  038%=      5-min Rain = 0
KDO1 181911Z 16014KT 37/21 A2988 RMK A01 T03720207  RH  038%=      5-min Rain = 0
KDO1 181912Z 16010G15KT 37/21 A2987 RMK A01 T03720208  RH  039%=      5-min Rain = 0
KDO1 181913Z 16013G20KT 37/21 A2987 RMK A01 T03740209  RH  039%=      5-min Rain = 0
KDO1 181914Z 19019KT 38/21 A2987 RMK A01 T03760207  RH  038%=      5-min Rain = 0
KDO1 181915Z 16016G21KT 37/21 A2987 RMK A01 T03740208  RH  038%=      5-min Rain = 0
KDO1 181916Z 16015G22KT 37/21 A2987 RMK A01 T03740209  RH  039%=      5-min Rain = 0
KDO1 181917Z 15020KT 37/21 A2987 RMK A01 T03740208  RH  038%=      5-min Rain = 0
KDO1 181918Z 15017KT 37/21 A2987 RMK A01 T03720207  RH  038%=      5-min Rain = 0
KDO1 181919Z 15013KT 37/21 A2987 RMK A01 T03700208  RH  039%=      5-min Rain = 0
KDO1 181920Z 15016G23KT 37/21 A2987 RMK A01 T03700209  RH  039%=      5-min Rain = 0
KDO1 181921Z 15017KT 37/21 A2987 RMK A01 T03710210  RH  039%=      5-min Rain = 0
KDO1 181922Z 15019KT 37/21 A2987 RMK A01 T03710210  RH  039%=      5-min Rain = 0
KDO1 181923Z 14015G22KT 37/21 A2987 RMK A01 T03710210  RH  039%=      5-min Rain = 0
KDO1 181924Z 14015KT 37/21 A2987 RMK A01 T03740210  RH  039%=      5-min Rain = 0
KDO1 181925Z 15016KT 38/21 A2987 RMK A01 T03750209  RH  038%=      5-min Rain = 0
KDO1 181926Z 17014KT 38/21 A2987 RMK A01 T03760211  RH  038%=      5-min Rain = 0
KDO1 181927Z 15016G22KT 38/21 A2987 RMK A01 T03780210  RH  038%=      5-min Rain = 0
KDO1 181928Z 15017KT 38/21 A2987 RMK A01 T03780209  RH  038%=      5-min Rain = 0
KDO1 181929Z 17014KT 38/21 A2987 RMK A01 T03770210  RH  038%=      5-min Rain = 0
KDO1 181930Z 15017KT 38/21 A2987 RMK A01 T03760209  RH  038%=      5-min Rain = 0
KDO1 181931Z 15015G20KT 38/21 A2987 RMK A01 T03750208  RH  038%=      5-min Rain = 0
KDO1 181932Z 16016KT 37/21 A2987 RMK A01 T03720208  RH  039%=      5-min Rain = 0
KDO1 181933Z 15015KT 37/21 A2987 RMK A01 T03730208  RH  038%=      5-min Rain = 0
KDO1 181934Z 15013G18KT 37/21 A2987 RMK A01 T03730208  RH  038%=      5-min Rain = 0
KDO1 181935Z 17016G22KT 38/21 A2987 RMK A01 T03760210  RH  038%=      5-min Rain = 0
KDO1 181936Z 17016KT 38/21 A2987 RMK A01 T03790208  RH  037%=      5-min Rain = 0
KDO1 181937Z 16017G23KT 38/21 A2986 RMK A01 T03770207  RH  038%=      5-min Rain = 0
KDO1 181938Z 16018G23KT 38/21 A2986 RMK A01 T03760209  RH  038%=      5-min Rain = 0
KDO1 181939Z 17016KT 38/21 A2986 RMK A01 T03780208  RH  038%=      5-min Rain = 0
KDO1 181940Z 16015KT 38/21 A2986 RMK A01 T03790209  RH  038%=      5-min Rain = 0
KDO1 181941Z 17016KT 38/21 A2986 RMK A01 T03790207  RH  037%=      5-min Rain = 0
KDO1 181942Z 16017KT 38/21 A2986 RMK A01 T03760207  RH  038%=      5-min Rain = 0
KDO1 181943Z 14015KT 37/21 A2986 RMK A01 T03740207  RH  038%=      5-min Rain = 0
KDO1 181944Z 15016KT 38/21 A2986 RMK A01 T03750206  RH  038%=      5-min Rain = 0
KDO1 181945Z 15014KT 37/21 A2986 RMK A01 T03740207  RH  038%=      5-min Rain = 0
KDO1 181946Z 15016G21KT 38/21 A2986 RMK A01 T03760207  RH  038%=      5-min Rain = 0
KDO1 181947Z 18016KT 38/21 A2986 RMK A01 T03780209  RH  038%=      5-min Rain = 0
KDO1 181948Z 17013KT 38/21 A2986 RMK A01 T03800210  RH  037%=      5-min Rain = 0
KDO1 181949Z 16014KT 38/21 A2986 RMK A01 T03810208  RH  037%=      5-min Rain = 0
KDO1 181950Z 16014KT 38/21 A2986 RMK A01 T03780205  RH  037%=      5-min Rain = 0
KDO1 181951Z 15016G25KT 38/21 A2986 RMK A01 T03760205  RH  037%=      5-min Rain = 0
KDO1 181952Z 16017G23KT 38/21 A2986 RMK A01 T03770206  RH  037%=      5-min Rain = 0
KDO1 181953Z 16018KT 38/21 A2986 RMK A01 T03770206  RH  037%=      5-min Rain = 0
KDO1 181954Z 17014KT 38/21 A2986 RMK A01 T03750206  RH  038%=      5-min Rain = 0
KDO1 181955Z 14013KT 37/21 A2986 RMK A01 T03740206  RH  038%=      5-min Rain = 0
KDO1 181956Z 15011KT 38/21 A2986 RMK A01 T03760205  RH  037%=      5-min Rain = 0
KDO1 181957Z 17013G19KT 38/21 A2986 RMK A01 T03790208  RH  037%=      5-min Rain = 0
KDO1 181958Z 17012KT 38/21 A2986 RMK A01 T03810210  RH  037%=      5-min Rain = 0
KDO1 181959Z 15017KT 38/21 A2986 RMK A01 T03820210  RH  037%=      5-min Rain = 0
KDO1 182000Z 16014KT 38/21 A2986 RMK A01 T03830210  RH  037%=      5-min Rain = 0
KDO1 182001Z 17014KT 38/21 A2986 RMK A01 T03830210  RH  037%=      5-min Rain = 0
KDO1 182002Z 17012G18KT 38/21 A2986 RMK A01 T03810209  RH  037%=      5-min Rain = 0
KDO1 182003Z 18015KT 38/21 A2986 RMK A01 T03810207  RH  036%=      5-min Rain = 0
KDO1 182004Z 16014KT 38/21 A2986 RMK A01 T03820206  RH  036%=      5-min Rain = 0
KDO1 182005Z 16015G21KT 38/20 A2986 RMK A01 T03810204  RH  036%=      5-min Rain = 0
KDO1 182006Z 15018KT 38/20 A2986 RMK A01 T03790204  RH  036%=      5-min Rain = 0
KDO1 182007Z 15015KT 38/20 A2986 RMK A01 T03780204  RH  036%=      5-min Rain = 0
KDO1 182008Z 15013G19KT 38/20 A2986 RMK A01 T03770204  RH  037%=      5-min Rain = 0
KDO1 182009Z 15017KT 38/20 A2986 RMK A01 T03780204  RH  036%=      5-min Rain = 0
KDO1 182010Z 15016KT 38/21 A2986 RMK A01 T03780205  RH  037%=      5-min Rain = 0
KDO1 182011Z 15017G22KT 38/21 A2985 RMK A01 T03800205  RH  036%=      5-min Rain = 0
KDO1 182012Z 17020KT 38/20 A2986 RMK A01 T03810203  RH  036%=      5-min Rain = 0
KDO1 182013Z 18018KT 38/20 A2986 RMK A01 T03810203  RH  036%=      5-min Rain = 0
KDO1 182014Z 18014KT 38/20 A2986 RMK A01 T03780202  RH  036%=      5-min Rain = 0
KDO1 182015Z 18012KT 38/21 A2986 RMK A01 T03790205  RH  037%=      5-min Rain = 0
KDO1 182016Z 19014G19KT 38/21 A2986 RMK A01 T03820207  RH  036%=      5-min Rain = 0
KDO1 182017Z 21015G21KT 38/21 A2985 RMK A01 T03840205  RH  036%=      5-min Rain = 0
KDO1 182018Z 21013KT 38/20 A2985 RMK A01 T03820204  RH  036%=      5-min Rain = 0
KDO1 182019Z 18013G21KT 38/21 A2985 RMK A01 T03810206  RH  036%=      5-min Rain = 0
KDO1 182020Z 16017G22KT 39/21 A2985 RMK A01 T03850205  RH  036%=      5-min Rain = 0
KDO1 182021Z 16016KT 38/20 A2985 RMK A01 T03840204  RH  035%=      5-min Rain = 0
KDO1 182022Z 18017KT 38/21 A2985 RMK A01 T03830206  RH  036%=      5-min Rain = 0
KDO1 182023Z 17016G21KT 38/20 A2985 RMK A01 T03830204  RH  035%=      5-min Rain = 0
KDO1 182024Z 16010G16KT 38/20 A2985 RMK A01 T03790202  RH  036%=      5-min Rain = 0
KDO1 182025Z 14015G20KT 38/21 A2985 RMK A01 T03800205  RH  036%=      5-min Rain = 0
KDO1 182026Z 15017KT 38/20 A2985 RMK A01 T03840204  RH  035%=      5-min Rain = 0
KDO1 182027Z 15014G19KT 38/20 A2985 RMK A01 T03840203  RH  035%=      5-min Rain = 0
KDO1 182028Z 15014G19KT 38/20 A2985 RMK A01 T03830204  RH  036%=      5-min Rain = 0
KDO1 182029Z 15015KT 38/20 A2985 RMK A01 T03830202  RH  035%=      5-min Rain = 0
KDO1 182030Z 16018KT 38/20 A2985 RMK A01 T03830202  RH  035%=      5-min Rain = 0
KDO1 182031Z 15019G26KT 38/20 A2985 RMK A01 T03840199  RH  034%=      5-min Rain = 0
KDO1 182032Z 17016G22KT 38/20 A2985 RMK A01 T03840202  RH  035%=      5-min Rain = 0
KDO1 182033Z 16013KT 39/21 A2985 RMK A01 T03860206  RH  036%=      5-min Rain = 0
KDO1 182034Z 16016KT 39/20 A2985 RMK A01 T03880200  RH  034%=      5-min Rain = 0
KDO1 182035Z 15015KT 39/20 A2985 RMK A01 T03850200  RH  034%=      5-min Rain = 0
KDO1 182036Z 16013KT 38/20 A2985 RMK A01 T03840201  RH  035%=      5-min Rain = 0
KDO1 182037Z 17013G20KT 39/20 A2985 RMK A01 T03860203  RH  035%=      5-min Rain = 0
KDO1 182038Z 16014KT 39/20 A2985 RMK A01 T03890202  RH  034%=      5-min Rain = 0
KDO1 182039Z 15016G21KT 39/20 A2985 RMK A01 T03890201  RH  034%=      5-min Rain = 0
KDO1 182040Z 15012G17KT 39/20 A2985 RMK A01 T03860201  RH  034%=      5-min Rain = 0
KDO1 182041Z 17012KT 39/20 A2985 RMK A01 T03880202  RH  034%=      5-min Rain = 0
KDO1 182042Z 17011G17KT 39/20 A2985 RMK A01 T03890201  RH  034%=      5-min Rain = 0
KDO1 182043Z 16015KT 39/20 A2985 RMK A01 T03900201  RH  034%=      5-min Rain = 0
KDO1 182044Z 16017G23KT 39/20 A2985 RMK A01 T03910201  RH  034%=      5-min Rain = 0
KDO1 182045Z 17014G19KT 39/20 A2985 RMK A01 T03900202  RH  034%=      5-min Rain = 0
KDO1 182046Z 17016G21KT 39/20 A2985 RMK A01 T03920201  RH  033%=      5-min Rain = 0
KDO1 182047Z 17019KT 39/20 A2985 RMK A01 T03920199  RH  033%=      5-min Rain = 0
KDO1 182048Z 17017KT 39/20 A2985 RMK A01 T03890198  RH  033%=      5-min Rain = 0
KDO1 182049Z 15013KT 39/20 A2985 RMK A01 T03870199  RH  034%=      5-min Rain = 0
KDO1 182050Z 16013KT 39/20 A2985 RMK A01 T03890198  RH  033%=      5-min Rain = 0
KDO1 182051Z 16011KT 39/20 A2985 RMK A01 T03900198  RH  033%=      5-min Rain = 0
KDO1 182052Z 16011KT 39/20 A2985 RMK A01 T03920198  RH  033%=      5-min Rain = 0
KDO1 182053Z 17012KT 40/20 A2985 RMK A01 T03950201  RH  033%=      5-min Rain = 0
KDO1 182054Z 16013KT 40/20 A2985 RMK A01 T03960200  RH  032%=      5-min Rain = 0
KDO1 182055Z 17013KT 39/20 A2985 RMK A01 T03940198  RH  032%=      5-min Rain = 0
KDO1 182056Z 18014KT 39/20 A2985 RMK A01 T03920199  RH  033%=      5-min Rain = 0
KDO1 182057Z 17017G22KT 39/20 A2985 RMK A01 T03930199  RH  033%=      5-min Rain = 0
KDO1 182058Z 18017G23KT 39/20 A2985 RMK A01 T03920199  RH  033%=      5-min Rain = 0
KDO1 182059Z 17018KT 39/20 A2985 RMK A01 T03920199  RH  033%=      5-min Rain = 0
KDO1 182100Z 16015G20KT 39/20 A2984 RMK A01 T03920198  RH  033%=      5-min Rain = 0
KDO1 182101Z 16016KT 39/20 A2984 RMK A01 T03900197  RH  033%=      5-min Rain = 0
KDO1 182102Z 17014G19KT 39/20 A2984 RMK A01 T03890197  RH  033%=      5-min Rain = 0
KDO1 182103Z 17016G21KT 39/20 A2984 RMK A01 T03890199  RH  033%=      5-min Rain = 0
KDO1 182104Z 15017G22KT 39/20 A2984 RMK A01 T03900199  RH  033%=      5-min Rain = 0
KDO1 182105Z 16017KT 39/20 A2984 RMK A01 T03900197  RH  033%=      5-min Rain = 0
KDO1 182106Z 15015KT 39/20 A2984 RMK A01 T03900196  RH  033%=      5-min Rain = 0
KDO1 182107Z 16016G21KT 39/20 A2984 RMK A01 T03880196  RH  033%=      5-min Rain = 0
KDO1 182108Z 16015KT 39/20 A2984 RMK A01 T03880196  RH  033%=      5-min Rain = 0
KDO1 182109Z 16014KT 39/20 A2984 RMK A01 T03870196  RH  033%=      5-min Rain = 0
KDO1 182110Z 17013KT 39/20 A2984 RMK A01 T03870195  RH  033%=      5-min Rain = 0
KDO1 182111Z 17012KT 39/20 A2984 RMK A01 T03880196  RH  033%=      5-min Rain = 0
KDO1 182112Z 18012G17KT 39/20 A2984 RMK A01 T03900196  RH  033%=      5-min Rain = 0
KDO1 182113Z 19015KT 39/20 A2984 RMK A01 T03930197  RH  032%=      5-min Rain = 0
KDO1 182114Z 18015KT 39/19 A2984 RMK A01 T03930194  RH  032%=      5-min Rain = 0
KDO1 182115Z 18012KT 39/19 A2984 RMK A01 T03900194  RH  032%=      5-min Rain = 0
KDO1 182116Z 17012G17KT 39/20 A2984 RMK A01 T03900197  RH  033%=      5-min Rain = 0
KDO1 182117Z 15015KT 39/20 A2984 RMK A01 T03920196  RH  032%=      5-min Rain = 0
KDO1 182118Z 16015G20KT 39/20 A2984 RMK A01 T03920195  RH  032%=      5-min Rain = 0
KDO1 182119Z 17016KT 39/20 A2984 RMK A01 T03890195  RH  033%=      5-min Rain = 0
KDO1 182120Z 16015G20KT 39/19 A2984 RMK A01 T03890194  RH  032%=      5-min Rain = 0
KDO1 182121Z 17014KT 39/20 A2984 RMK A01 T03890195  RH  032%=      5-min Rain = 0
KDO1 182122Z 17015KT 39/20 A2984 RMK A01 T03910197  RH  033%=      5-min Rain = 0
KDO1 182123Z 16019KT 39/20 A2984 RMK A01 T03930195  RH  032%=      5-min Rain = 0
KDO1 182124Z 16016KT 39/19 A2984 RMK A01 T03910193  RH  032%=      5-min Rain = 0
KDO1 182125Z 16015KT 39/20 A2984 RMK A01 T03890195  RH  033%=      5-min Rain = 0
KDO1 182126Z 17011KT 39/20 A2984 RMK A01 T03900195  RH  032%=      5-min Rain = 0
KDO1 182127Z 15014KT 39/20 A2984 RMK A01 T03930196  RH  032%=      5-min Rain = 0
KDO1 182128Z 16010G15KT 39/20 A2983 RMK A01 T03930195  RH  032%=      5-min Rain = 0
KDO1 182129Z 16010G15KT 39/20 A2983 RMK A01 T03930196  RH  032%=      5-min Rain = 0
KDO1 182130Z 18011KT 39/20 A2983 RMK A01 T03940197  RH  032%=      5-min Rain = 0
KDO1 182131Z 18012KT 40/20 A2983 RMK A01 T03970198  RH  032%=      5-min Rain = 0
KDO1 182132Z 18013KT 40/20 A2983 RMK A01 T03970196  RH  031%=      5-min Rain = 0
KDO1 182133Z 18017G22KT 39/20 A2983 RMK A01 T03940196  RH  032%=      5-min Rain = 0
KDO1 182134Z 19012G18KT 39/20 A2983 RMK A01 T03920196  RH  032%=      5-min Rain = 0
KDO1 182135Z 19013KT 39/20 A2983 RMK A01 T03920195  RH  032%=      5-min Rain = 0
KDO1 182136Z 17008KT 39/19 A2983 RMK A01 T03940194  RH  031%=      5-min Rain = 0
KDO1 182137Z 16012KT 40/19 A2983 RMK A01 T03950194  RH  031%=      5-min Rain = 0
KDO1 182138Z 16010KT 40/20 A2983 RMK A01 T03950196  RH  032%=      5-min Rain = 0
KDO1 182139Z 18014G19KT 40/20 A2983 RMK A01 T03960196  RH  032%=      5-min Rain = 0
KDO1 182140Z 18016G21KT 40/19 A2983 RMK A01 T03960194  RH  031%=      5-min Rain = 0
KDO1 182141Z 18015G20KT 39/19 A2983 RMK A01 T03940194  RH  031%=      5-min Rain = 0
KDO1 182142Z 17013KT 39/19 A2983 RMK A01 T03930194  RH  032%=      5-min Rain = 0
KDO1 182143Z 16011G17KT 39/19 A2983 RMK A01 T03920194  RH  032%=      5-min Rain = 0
KDO1 182144Z 15017KT 39/19 A2983 RMK A01 T03920192  RH  031%=      5-min Rain = 0
KDO1 182145Z 16018KT 39/19 A2983 RMK A01 T03910193  RH  032%=      5-min Rain = 0
KDO1 182146Z 16014KT 39/19 A2983 RMK A01 T03890191  RH  032%=      5-min Rain = 0
KDO1 182147Z 17016KT 39/19 A2983 RMK A01 T03870192  RH  032%=      5-min Rain = 0
KDO1 182148Z 15016KT 39/19 A2983 RMK A01 T03880192  RH  032%=      5-min Rain = 0
KDO1 182149Z 16013KT 39/19 A2983 RMK A01 T03870192  RH  032%=      5-min Rain = 0
KDO1 182150Z 16014KT 39/19 A2983 RMK A01 T03880193  RH  032%=      5-min Rain = 0
KDO1 182151Z 16016G21KT 39/19 A2983 RMK A01 T03900194  RH  032%=      5-min Rain = 0
KDO1 182152Z 16019KT 39/19 A2983 RMK A01 T03910191  RH  031%=      5-min Rain = 0
KDO1 182153Z 16020G25KT 39/19 A2982 RMK A01 T03880191  RH  032%=      5-min Rain = 0
KDO1 182154Z 16017G22KT 39/19 A2982 RMK A01 T03850191  RH  032%=      5-min Rain = 0
KDO1 182155Z 16015G20KT 39/19 A2983 RMK A01 T03860193  RH  033%=      5-min Rain = 0
KDO1 182156Z 18015KT 39/19 A2982 RMK A01 T03890193  RH  032%=      5-min Rain = 0
KDO1 182157Z 16013KT 39/19 A2982 RMK A01 T03910193  RH  032%=      5-min Rain = 0
KDO1 182158Z 16014G20KT 39/19 A2982 RMK A01 T03910193  RH  032%=      5-min Rain = 0
KDO1 182159Z 15017KT 39/19 A2982 RMK A01 T03900193  RH  032%=      5-min Rain = 0
KDO1 182200Z 16016G22KT 39/19 A2982 RMK A01 T03900191  RH  032%=      5-min Rain = 0
KDO1 182201Z 16017KT 39/19 A2982 RMK A01 T03920191  RH  031%=      5-min Rain = 0
KDO1 182202Z 16013G18KT 39/19 A2982 RMK A01 T03920190  RH  031%=      5-min Rain = 0
KDO1 182203Z 16014KT 39/19 A2982 RMK A01 T03920192  RH  031%=      5-min Rain = 0
KDO1 182204Z 16015KT 39/19 A2982 RMK A01 T03930192  RH  031%=      5-min Rain = 0
KDO1 182205Z 16015KT 39/19 A2982 RMK A01 T03920193  RH  032%=      5-min Rain = 0
KDO1 182206Z 16014G20KT 39/19 A2982 RMK A01 T03920192  RH  031%=      5-min Rain = 0
KDO1 182207Z 17015G20KT 39/19 A2982 RMK A01 T03910194  RH  032%=      5-min Rain = 0
KDO1 182208Z 18016KT 39/19 A2982 RMK A01 T03930192  RH  031%=      5-min Rain = 0
KDO1 182209Z 17017G24KT 39/19 A2982 RMK A01 T03920191  RH  031%=      5-min Rain = 0
KDO1 182210Z 16019G25KT 39/19 A2982 RMK A01 T03910191  RH  032%=      5-min Rain = 0
KDO1 182211Z 16019KT 39/19 A2982 RMK A01 T03900189  RH  031%=      5-min Rain = 0
KDO1 182212Z 15015KT 39/19 A2982 RMK A01 T03870189  RH  032%=      5-min Rain = 0
KDO1 182213Z 15017G22KT 39/19 A2982 RMK A01 T03890188  RH  031%=      5-min Rain = 0
KDO1 182214Z 16015G23KT 39/19 A2982 RMK A01 T03900189  RH  031%=      5-min Rain = 0
KDO1 182215Z 16017G24KT 39/19 A2982 RMK A01 T03900188  RH  031%=      5-min Rain = 0
KDO1 182216Z 16015KT 39/19 A2982 RMK A01 T03890188  RH  031%=      5-min Rain = 0
KDO1 182217Z 16019G25KT 39/19 A2982 RMK A01 T03880188  RH  031%=      5-min Rain = 0
KDO1 182218Z 16015G21KT 39/19 A2982 RMK A01 T03880187  RH  031%=      5-min Rain = 0
KDO1 182219Z 17011G16KT 39/19 A2982 RMK A01 T03880188  RH  031%=      5-min Rain = 0
KDO1 182220Z 17013G20KT 39/19 A2982 RMK A01 T03910190  RH  031%=      5-min Rain = 0
KDO1 182221Z 17014KT 39/19 A2982 RMK A01 T03940191  RH  031%=      5-min Rain = 0
KDO1 182222Z 17014KT 40/19 A2982 RMK A01 T03960192  RH  031%=      5-min Rain = 0
KDO1 182223Z 17014G19KT 40/19 A2982 RMK A01 T03960192  RH  031%=      5-min Rain = 0
KDO1 182224Z 17013KT 40/19 A2982 RMK A01 T03970192  RH  031%=      5-min Rain = 0
KDO1 182225Z 17017G22KT 40/19 A2982 RMK A01 T03970190  RH  030%=      5-min Rain = 0
KDO1 182226Z 17016KT 39/19 A2982 RMK A01 T03940188  RH  030%=      5-min Rain = 0
KDO1 182227Z 16015KT 39/19 A2982 RMK A01 T03920189  RH  031%=      5-min Rain = 0
KDO1 182228Z 16017G22KT 39/19 A2982 RMK A01 T03920189  RH  031%=      5-min Rain = 0
KDO1 182229Z 17014KT 39/19 A2982 RMK A01 T03910188  RH  031%=      5-min Rain = 0
KDO1 182230Z 17014G19KT 39/19 A2982 RMK A01 T03900188  RH  031%=      5-min Rain = 0
KDO1 182231Z 17014KT 39/19 A2981 RMK A01 T03900189  RH  031%=      5-min Rain = 0
KDO1 182232Z 16015KT 39/19 A2981 RMK A01 T03900190  RH  031%=      5-min Rain = 0
KDO1 182233Z 17016G23KT 39/19 A2981 RMK A01 T03910190  RH  031%=      5-min Rain = 0
KDO1 182234Z 16017KT 39/19 A2981 RMK A01 T03910187  RH  031%=      5-min Rain = 0
KDO1 182235Z 17018KT 39/19 A2981 RMK A01 T03900187  RH  031%=      5-min Rain = 0
KDO1 182236Z 18014KT 39/19 A2981 RMK A01 T03890185  RH  030%=      5-min Rain = 0
KDO1 182237Z 18015KT 39/19 A2981 RMK A01 T03890186  RH  031%=      5-min Rain = 0
KDO1 182238Z 16015G20KT 39/19 A2981 RMK A01 T03890186  RH  031%=      5-min Rain = 0
KDO1 182239Z 15014KT 39/19 A2981 RMK A01 T03900186  RH  031%=      5-min Rain = 0
KDO1 182240Z 16017G23KT 39/19 A2981 RMK A01 T03900186  RH  031%=      5-min Rain = 0
KDO1 182241Z 16018G24KT 39/18 A2981 RMK A01 T03890184  RH  030%=      5-min Rain = 0
KDO1 182242Z 16015KT 39/19 A2981 RMK A01 T03880185  RH  031%=      5-min Rain = 0
KDO1 182243Z 16017G24KT 39/19 A2981 RMK A01 T03880186  RH  031%=      5-min Rain = 0
KDO1 182244Z 17017KT 39/19 A2981 RMK A01 T03880185  RH  031%=      5-min Rain = 0
KDO1 182245Z 17019G24KT 39/19 A2981 RMK A01 T03880185  RH  031%=      5-min Rain = 0
KDO1 182246Z 16013G19KT 39/19 A2981 RMK A01 T03890186  RH  031%=      5-min Rain = 0
KDO1 182247Z 17017G22KT 39/19 A2981 RMK A01 T03900187  RH  031%=      5-min Rain = 0
KDO1 182248Z 17013KT 39/19 A2981 RMK A01 T03900187  RH  031%=      5-min Rain = 0
KDO1 182249Z 16019G26KT 39/19 A2981 RMK A01 T03900188  RH  031%=      5-min Rain = 0
KDO1 182250Z 17018KT 39/19 A2981 RMK A01 T03890187  RH  031%=      5-min Rain = 0
KDO1 182251Z 18016KT 39/19 A2981 RMK A01 T03880187  RH  031%=      5-min Rain = 0
KDO1 182252Z 17014KT 39/19 A2981 RMK A01 T03880186  RH  031%=      5-min Rain = 0
KDO1 182253Z 16015KT 39/19 A2981 RMK A01 T03890186  RH  031%=      5-min Rain = 0
KDO1 182254Z 17020KT 39/19 A2981 RMK A01 T03890185  RH  031%=      5-min Rain = 0
KDO1 182255Z 17018KT 39/18 A2981 RMK A01 T03870184  RH  031%=      5-min Rain = 0
KDO1 182256Z 18014G19KT 39/19 A2981 RMK A01 T03860185  RH  031%=      5-min Rain = 0
KDO1 182257Z 17016G21KT 39/19 A2981 RMK A01 T03880186  RH  031%=      5-min Rain = 0
KDO1 182258Z 16017KT 39/18 A2981 RMK A01 T03890184  RH  030%=      5-min Rain = 0
KDO1 182259Z 16015KT 39/18 A2981 RMK A01 T03890183  RH  030%=      5-min Rain = 0
KDO1 182300Z 15013G18KT 39/18 A2981 RMK A01 T03880183  RH  030%=      5-min Rain = 0
KDO1 182301Z 15013KT 39/18 A298 RMK A01 T03880184  RH  031%=      5-min Rain = 0
KDO1 182302Z 17014KT 39/19 A298 RMK A01 T03890185  RH  031%=      5-min Rain = 0
KDO1 182303Z 18016KT 39/19 A2981 RMK A01 T03910186  RH  030%=      5-min Rain = 0
KDO1 182304Z 19015KT 39/18 A2981 RMK A01 T03910183  RH  030%=      5-min Rain = 0
KDO1 182305Z 18011KT 39/19 A298 RMK A01 T03890185  RH  031%=      5-min Rain = 0
KDO1 182306Z 17012KT 39/19 A298 RMK A01 T03900187  RH  031%=      5-min Rain = 0
KDO1 182307Z 16012KT 39/19 A298 RMK A01 T03920187  RH  031%=      5-min Rain = 0
KDO1 182308Z 15015G21KT 39/19 A298 RMK A01 T03920186  RH  030%=      5-min Rain = 0
KDO1 182309Z 15016KT 39/19 A298 RMK A01 T03910185  RH  030%=      5-min Rain = 0
KDO1 182310Z 17016KT 39/19 A298 RMK A01 T03900186  RH  031%=      5-min Rain = 0
KDO1 182311Z 17013G18KT 39/19 A298 RMK A01 T03880187  RH  031%=      5-min Rain = 0
KDO1 182312Z 16016G21KT 39/19 A298 RMK A01 T03870186  RH  031%=      5-min Rain = 0
KDO1 182313Z 17014KT 39/19 A298 RMK A01 T03870188  RH  031%=      5-min Rain = 0
KDO1 182314Z 17012KT 39/19 A298 RMK A01 T03880187  RH  031%=      5-min Rain = 0
KDO1 182315Z 17017G22KT 39/19 A298 RMK A01 T03900187  RH  031%=      5-min Rain = 0
KDO1 182316Z 17012KT 39/18 A298 RMK A01 T03890183  RH  030%=      5-min Rain = 0
KDO1 182317Z 17016KT 39/19 A298 RMK A01 T03890185  RH  031%=      5-min Rain = 0
KDO1 182318Z 17017KT 39/18 A298 RMK A01 T03890184  RH  030%=      5-min Rain = 0
KDO1 182319Z 17016KT 39/19 A298 RMK A01 T03880185  RH  031%=      5-min Rain = 0
KDO1 182320Z 16013G19KT 39/19 A298 RMK A01 T03870185  RH  031%=      5-min Rain = 0
KDO1 182321Z 17010KT 39/19 A298 RMK A01 T03880188  RH  031%=      5-min Rain = 0
KDO1 182322Z 17011KT 39/19 A298 RMK A01 T03900188  RH  031%=      5-min Rain = 0
KDO1 182323Z 15012G17KT 39/19 A298 RMK A01 T03900186  RH  030%=      5-min Rain = 0
KDO1 182324Z 16013KT 39/19 A298 RMK A01 T03920185  RH  030%=      5-min Rain = 0
KDO1 182325Z 16015KT 39/18 A298 RMK A01 T03920182  RH  030%=      5-min Rain = 0
KDO1 182326Z 17018KT 39/18 A298 RMK A01 T03900183  RH  030%=      5-min Rain = 0
KDO1 182327Z 16016KT 39/18 A298 RMK A01 T03870183  RH  031%=      5-min Rain = 0
KDO1 182328Z 16019KT 39/18 A298 RMK A01 T03860183  RH  031%=      5-min Rain = 0
KDO1 182329Z 16017G22KT 39/18 A298 RMK A01 T03850184  RH  031%=      5-min Rain = 0
KDO1 182330Z 18014KT 38/19 A298 RMK A01 T03830185  RH  031%=      5-min Rain = 0
KDO1 182331Z 16012G18KT 38/19 A298 RMK A01 T03830186  RH  032%=      5-min Rain = 0
KDO1 182332Z 16012KT 38/19 A298 RMK A01 T03840186  RH  032%=      5-min Rain = 0
KDO1 182333Z 16013KT 39/19 A298 RMK A01 T03850187  RH  032%=      5-min Rain = 0
KDO1 182334Z 16014KT 39/19 A298 RMK A01 T03860187  RH  031%=      5-min Rain = 0
KDO1 182335Z 16013KT 39/19 A298 RMK A01 T03880185  RH  031%=      5-min Rain = 0
KDO1 182336Z 16014G19KT 39/18 A298 RMK A01 T03870184  RH  031%=      5-min Rain = 0
KDO1 182337Z 16016G22KT 39/18 A298 RMK A01 T03870182  RH  030%=      5-min Rain = 0
KDO1 182338Z 16019KT 39/18 A298 RMK A01 T03860182  RH  030%=      5-min Rain = 0
KDO1 182339Z 15015KT 38/18 A298 RMK A01 T03840182  RH  031%=      5-min Rain = 0
KDO1 182340Z 16017KT 38/18 A298 RMK A01 T03840184  RH  031%=      5-min Rain = 0
KDO1 182341Z 15017G22KT 38/18 A298 RMK A01 T03830184  RH  031%=      5-min Rain = 0
KDO1 182342Z 16020KT 38/18 A298 RMK A01 T03830183  RH  031%=      5-min Rain = 0
KDO1 182343Z 16017KT 38/18 A298 RMK A01 T03810183  RH  031%=      5-min Rain = 0
KDO1 182344Z 15015G20KT 38/18 A298 RMK A01 T03810183  RH  032%=      5-min Rain = 0
KDO1 182345Z 15016KT 38/18 A298 RMK A01 T03810183  RH  032%=      5-min Rain = 0
KDO1 182346Z 16016KT 38/18 A298 RMK A01 T03810184  RH  032%=      5-min Rain = 0
KDO1 182347Z 16015KT 38/18 A298 RMK A01 T03810184  RH  032%=      5-min Rain = 0
KDO1 182348Z 16013KT 38/19 A298 RMK A01 T03810185  RH  032%=      5-min Rain = 0
KDO1 182349Z 15014KT 38/19 A298 RMK A01 T03820185  RH  032%=      5-min Rain = 0
KDO1 182350Z 17012KT 38/18 A298 RMK A01 T03820184  RH  032%=      5-min Rain = 0
KDO1 182351Z 17013G19KT 38/18 A298 RMK A01 T03830183  RH  031%=      5-min Rain = 0
KDO1 182352Z 17016G21KT 38/18 A298 RMK A01 T03840182  RH  031%=      5-min Rain = 0
KDO1 182353Z 17016G23KT 38/18 A298 RMK A01 T03840178  RH  030%=      5-min Rain = 0
KDO1 182354Z 16012G20KT 38/18 A298 RMK A01 T03830180  RH  031%=      5-min Rain = 0
KDO1 182355Z 16014G19KT 38/18 A298 RMK A01 T03830181  RH  031%=      5-min Rain = 0
KDO1 182356Z 16015KT 38/18 A298 RMK A01 T03820180  RH  031%=      5-min Rain = 0
KDO1 182357Z 17017KT 38/18 A298 RMK A01 T03820180  RH  031%=      5-min Rain = 0
KDO1 182358Z 16011KT 38/18 A298 RMK A01 T03820180  RH  031%=      5-min Rain = 0
KDO1 182359Z 16014KT 38/18 A298 RMK A01 T03820181  RH  031%=      5-min Rain = 0
KDO1 190000Z 15018KT 38/18 A298 RMK A01 T03820180  RH  031%=      5-min Rain = 0
KDO1 190001Z 16013KT 38/18 A298 RMK A01 T03810180  RH  031%=      5-min Rain = 0
KDO1 190002Z 16013KT 38/18 A298 RMK A01 T03810181  RH  031%=      5-min Rain = 0
KDO1 190003Z 16015KT 38/18 A298 RMK A01 T03810182  RH  031%=      5-min Rain = 0
KDO1 190004Z 17014KT 38/18 A298 RMK A01 T03800182  RH  032%=      5-min Rain = 0
KDO1 190005Z 16012KT 38/18 A298 RMK A01 T03790183  RH  032%=      5-min Rain = 0
KDO1 190006Z 16016G22KT 38/18 A298 RMK A01 T03800184  RH  032%=      5-min Rain = 0
KDO1 190007Z 15015KT 38/18 A298 RMK A01 T03800184  RH  032%=      5-min Rain = 0
KDO1 190008Z 16014KT 38/18 A298 RMK A01 T03790184  RH  032%=      5-min Rain = 0
KDO1 190009Z 15012G17KT 38/18 A298 RMK A01 T03790184  RH  032%=      5-min Rain = 0
KDO1 190010Z 15016KT 38/18 A298 RMK A01 T03790184  RH  032%=      5-min Rain = 0
KDO1 190011Z 16015G20KT 38/18 A298 RMK A01 T03790184  RH  032%=      5-min Rain = 0
KDO1 190012Z 16015KT 38/18 A298 RMK A01 T03780184  RH  032%=      5-min Rain = 0
KDO1 190013Z 16014KT 38/18 A298 RMK A01 T03770184  RH  032%=      5-min Rain = 0
KDO1 190014Z 16014KT 38/18 A298 RMK A01 T03770183  RH  032%=      5-min Rain = 0
KDO1 190015Z 16016KT 38/18 A298 RMK A01 T03770184  RH  033%=      5-min Rain = 0
KDO1 190016Z 17016KT 38/19 A298 RMK A01 T03760185  RH  033%=      5-min Rain = 0
KDO1 190017Z 16014KT 38/18 A298 RMK A01 T03760184  RH  033%=      5-min Rain = 0
KDO1 190018Z 16015KT 38/19 A298 RMK A01 T03760185  RH  033%=      5-min Rain = 0
KDO1 190019Z 16015G21KT 38/19 A298 RMK A01 T03760185  RH  033%=      5-min Rain = 0
KDO1 190020Z 16013KT 38/19 A298 RMK A01 T03760186  RH  033%=      5-min Rain = 0
KDO1 190021Z 16014KT 38/19 A298 RMK A01 T03760186  RH  033%=      5-min Rain = 0
KDO1 190022Z 15014KT 38/19 A298 RMK A01 T03760186  RH  033%=      5-min Rain = 0
KDO1 190023Z 15016KT 38/19 A298 RMK A01 T03760185  RH  033%=      5-min Rain = 0
KDO1 190024Z 16014KT 38/19 A298 RMK A01 T03750185  RH  033%=      5-min Rain = 0
KDO1 190025Z 16012G17KT 38/19 A298 RMK A01 T03750187  RH  033%=      5-min Rain = 0
KDO1 190026Z 16016KT 38/19 A298 RMK A01 T03750186  RH  033%=      5-min Rain = 0
KDO1 190027Z 16016KT 37/19 A298 RMK A01 T03740185  RH  033%=      5-min Rain = 0
KDO1 190028Z 15012KT 37/19 A298 RMK A01 T03730185  RH  033%=      5-min Rain = 0
KDO1 190029Z 15011KT 37/19 A298 RMK A01 T03730186  RH  034%=      5-min Rain = 0
KDO1 190030Z 16012G17KT 37/19 A298 RMK A01 T03730186  RH  034%=      5-min Rain = 0
KDO1 190031Z 16011KT 37/19 A298 RMK A01 T03730186  RH  033%=      5-min Rain = 0
KDO1 190032Z 15015KT 37/19 A298 RMK A01 T03730187  RH  034%=      5-min Rain = 0
KDO1 190033Z 16014KT 37/19 A298 RMK A01 T03730186  RH  034%=      5-min Rain = 0
KDO1 190034Z 16016KT 37/19 A298 RMK A01 T03720185  RH  033%=      5-min Rain = 0
KDO1 190035Z 16016KT 37/19 A298 RMK A01 T03720185  RH  034%=      5-min Rain = 0
KDO1 190036Z 16014KT 37/19 A298 RMK A01 T03720185  RH  034%=      5-min Rain = 0
KDO1 190037Z 16012G17KT 37/19 A298 RMK A01 T03720185  RH  034%=      5-min Rain = 0
KDO1 190038Z 15012KT 37/19 A298 RMK A01 T03720185  RH  034%=      5-min Rain = 0
KDO1 190039Z 15013KT 37/19 A298 RMK A01 T03710185  RH  034%=      5-min Rain = 0
KDO1 190040Z 16013G18KT 37/19 A298 RMK A01 T03710185  RH  034%=      5-min Rain = 0
KDO1 190041Z 16013KT 37/19 A298 RMK A01 T03720185  RH  034%=      5-min Rain = 0
KDO1 190042Z 15010G15KT 37/19 A298 RMK A01 T03710185  RH  034%=      5-min Rain = 0
KDO1 190043Z 15012G17KT 37/19 A298 RMK A01 T03710185  RH  034%=      5-min Rain = 0
KDO1 190044Z 15011G17KT 37/19 A298 RMK A01 T03710185  RH  034%=      5-min Rain = 0
KDO1 190045Z 15014KT 37/19 A298 RMK A01 T03700186  RH  034%=      5-min Rain = 0
KDO1 190046Z 15014KT 37/19 A298 RMK A01 T03700185  RH  034%=      5-min Rain = 0
KDO1 190047Z 15011G17KT 37/19 A298 RMK A01 T03700185  RH  034%=      5-min Rain = 0
KDO1 190048Z 16016KT 37/19 A298 RMK A01 T03690185  RH  034%=      5-min Rain = 0
KDO1 190049Z 15014KT 37/19 A298 RMK A01 T03680186  RH  034%=      5-min Rain = 0
KDO1 190050Z 15012KT 37/19 A298 RMK A01 T03680187  RH  035%=      5-min Rain = 0
KDO1 190051Z 15012KT 37/19 A298 RMK A01 T03680187  RH  035%=      5-min Rain = 0
KDO1 190052Z 16013KT 37/19 A298 RMK A01 T03670187  RH  035%=      5-min Rain = 0
KDO1 190053Z 16010KT 37/19 A298 RMK A01 T03670187  RH  035%=      5-min Rain = 0
KDO1 190054Z 16013KT 37/19 A298 RMK A01 T03670187  RH  035%=      5-min Rain = 0
KDO1 190055Z 16013KT 37/19 A298 RMK A01 T03660186  RH  035%=      5-min Rain = 0
KDO1 190056Z 15010KT 37/19 A298 RMK A01 T03660187  RH  035%=      5-min Rain = 0
KDO1 190057Z 15013KT 37/19 A298 RMK A01 T03660187  RH  035%=      5-min Rain = 0
KDO1 190058Z 16012G17KT 37/19 A298 RMK A01 T03650186  RH  035%=      5-min Rain = 0
KDO1 190059Z 15012KT 37/19 A298 RMK A01 T03650186  RH  035%=      5-min Rain = 0
KDO1 190100Z 16014KT 37/19 A298 RMK A01 T03650186  RH  035%=      5-min Rain = 0
KDO1 190101Z 16013KT 36/19 A298 RMK A01 T03640186  RH  035%=      5-min Rain = 0
KDO1 190102Z 15012KT 36/19 A298 RMK A01 T03640186  RH  035%=      5-min Rain = 0
KDO1 190103Z 15012G17KT 36/19 A298 RMK A01 T03640186  RH  035%=      5-min Rain = 0
KDO1 190104Z 16014KT 36/19 A298 RMK A01 T03630185  RH  035%=      5-min Rain = 0
KDO1 190105Z 16013KT 36/19 A298 RMK A01 T03630185  RH  035%=      5-min Rain = 0
KDO1 190106Z 17013KT 36/19 A298 RMK A01 T03630186  RH  035%=      5-min Rain = 0
KDO1 190107Z 16011KT 36/19 A298 RMK A01 T03630186  RH  036%=      5-min Rain = 0
KDO1 190108Z 16011KT 36/19 A298 RMK A01 T03620186  RH  036%=      5-min Rain = 0
KDO1 190109Z 16010KT 36/19 A298 RMK A01 T03620186  RH  036%=      5-min Rain = 0
KDO1 190110Z 16011KT 36/19 A298 RMK A01 T03610186  RH  036%=      5-min Rain = 0
KDO1 190111Z 15012KT 36/19 A298 RMK A01 T03610187  RH  036%=      5-min Rain = 0
KDO1 190112Z 15012KT 36/19 A298 RMK A01 T03600186  RH  036%=      5-min Rain = 0
KDO1 190113Z 15011KT 36/19 A298 RMK A01 T03600186  RH  036%=      5-min Rain = 0
KDO1 190114Z 15010KT 36/19 A298 RMK A01 T03590186  RH  036%=      5-min Rain = 0
KDO1 190115Z 15011G16KT 36/19 A298 RMK A01 T03590187  RH  036%=      5-min Rain = 0
KDO1 190116Z 16013KT 36/19 A298 RMK A01 T03590186  RH  036%=      5-min Rain = 0
KDO1 190117Z 15012KT 36/19 A298 RMK A01 T03590186  RH  036%=      5-min Rain = 0
KDO1 190118Z 16014KT 36/19 A298 RMK A01 T03580186  RH  036%=      5-min Rain = 0
KDO1 190119Z 16011KT 36/19 A298 RMK A01 T03580187  RH  037%=      5-min Rain = 0
KDO1 190120Z 16013G18KT 36/19 A298 RMK A01 T03580187  RH  037%=      5-min Rain = 0
KDO1 190121Z 16010KT 36/19 A298 RMK A01 T03570186  RH  037%=      5-min Rain = 0
KDO1 190122Z 16011KT 36/19 A298 RMK A01 T03570187  RH  037%=      5-min Rain = 0
KDO1 190123Z 15013KT 36/19 A298 RMK A01 T03560186  RH  037%=      5-min Rain = 0
KDO1 190124Z 16012KT 36/19 A298 RMK A01 T03560187  RH  037%=      5-min Rain = 0
KDO1 190125Z 15012KT 36/19 A298 RMK A01 T03560187  RH  037%=      5-min Rain = 0
KDO1 190126Z 16012KT 36/19 A298 RMK A01 T03550187  RH  037%=      5-min Rain = 0
KDO1 190127Z 16013KT 36/19 A298 RMK A01 T03550187  RH  037%=      5-min Rain = 0
KDO1 190128Z 16013KT 36/19 A298 RMK A01 T03550187  RH  037%=      5-min Rain = 0
KDO1 190129Z 16009KT 35/19 A298 RMK A01 T03540186  RH  037%=      5-min Rain = 0
KDO1 190130Z 15015KT 35/19 A298 RMK A01 T03540187  RH  037%=      5-min Rain = 0
KDO1 190131Z 16012G17KT 35/19 A2981 RMK A01 T03530186  RH  037%=      5-min Rain = 0
KDO1 190132Z 15013G18KT 35/19 A2981 RMK A01 T03530187  RH  037%=      5-min Rain = 0
KDO1 190133Z 16013G18KT 35/19 A2981 RMK A01 T03530186  RH  038%=      5-min Rain = 0
KDO1 190134Z 16012KT 35/19 A2981 RMK A01 T03530186  RH  038%=      5-min Rain = 0
KDO1 190135Z 15013KT 35/19 A2981 RMK A01 T03520186  RH  038%=      5-min Rain = 0
KDO1 190136Z 15012KT 35/19 A2981 RMK A01 T03520187  RH  038%=      5-min Rain = 0
KDO1 190137Z 15012KT 35/19 A2981 RMK A01 T03520187  RH  038%=      5-min Rain = 0
KDO1 190138Z 15016KT 35/19 A2981 RMK A01 T03510187  RH  038%=      5-min Rain = 0
KDO1 190139Z 15015G21KT 35/19 A2981 RMK A01 T03520188  RH  038%=      5-min Rain = 0
KDO1 190140Z 16013KT 35/19 A2981 RMK A01 T03520188  RH  038%=      5-min Rain = 0
KDO1 190141Z 16014KT 35/19 A2981 RMK A01 T03510188  RH  038%=      5-min Rain = 0
KDO1 190142Z 16016KT 35/19 A2981 RMK A01 T03500188  RH  039%=      5-min Rain = 0
KDO1 190143Z 16011KT 35/19 A2981 RMK A01 T03500189  RH  039%=      5-min Rain = 0
KDO1 190144Z 16011KT 35/19 A2981 RMK A01 T03490189  RH  039%=      5-min Rain = 0
KDO1 190145Z 15012KT 35/19 A2981 RMK A01 T03480189  RH  039%=      5-min Rain = 0
KDO1 190146Z 16012KT 35/19 A2981 RMK A01 T03470189  RH  039%=      5-min Rain = 0
KDO1 190147Z 16013KT 35/19 A2981 RMK A01 T03470189  RH  040%=      5-min Rain = 0
KDO1 190148Z 15013KT 35/19 A2981 RMK A01 T03460189  RH  040%=      5-min Rain = 0
KDO1 190149Z 17014KT 35/19 A2981 RMK A01 T03460190  RH  040%=      5-min Rain = 0
KDO1 190150Z 16012KT 35/19 A2981 RMK A01 T03460190  RH  040%=      5-min Rain = 0
KDO1 190151Z 16011KT 35/19 A2981 RMK A01 T03460190  RH  040%=      5-min Rain = 0
KDO1 190152Z 16011G16KT 35/19 A2981 RMK A01 T03450190  RH  040%=      5-min Rain = 0
KDO1 190153Z 17011KT 35/19 A2981 RMK A01 T03450190  RH  040%=      5-min Rain = 0
KDO1 190154Z 15011KT 34/19 A2981 RMK A01 T03440190  RH  040%=      5-min Rain = 0
KDO1 190155Z 16012KT 34/19 A2981 RMK A01 T03440191  RH  040%=      5-min Rain = 0
KDO1 190156Z 16012KT 34/19 A2981 RMK A01 T03430190  RH  041%=      5-min Rain = 0
KDO1 190157Z 15011KT 34/19 A2981 RMK A01 T03430191  RH  041%=      5-min Rain = 0
KDO1 190158Z 16010KT 34/19 A2981 RMK A01 T03430191  RH  041%=      5-min Rain = 0
KDO1 190159Z 16015G20KT 34/19 A2981 RMK A01 T03420191  RH  041%=      5-min Rain = 0
KDO1 190200Z 16013KT 34/19 A2981 RMK A01 T03420190  RH  041%=      5-min Rain = 0
KDO1 190201Z 16012KT 34/19 A2981 RMK A01 T03420191  RH  041%=      5-min Rain = 0
KDO1 190202Z 16011G16KT 34/19 A2981 RMK A01 T03420190  RH  041%=      5-min Rain = 0
KDO1 190203Z 15013KT 34/19 A2981 RMK A01 T03420191  RH  041%=      5-min Rain = 0
KDO1 190204Z 16014KT 34/19 A2981 RMK A01 T03410190  RH  041%=      5-min Rain = 0
KDO1 190205Z 16014KT 34/19 A2981 RMK A01 T03410191  RH  041%=      5-min Rain = 0
KDO1 190206Z 16012G18KT 34/19 A2981 RMK A01 T03410191  RH  041%=      5-min Rain = 0
KDO1 190207Z 16014KT 34/19 A2981 RMK A01 T03410190  RH  041%=      5-min Rain = 0
KDO1 190208Z 16015KT 34/19 A2981 RMK A01 T03410190  RH  041%=      5-min Rain = 0
KDO1 190209Z 16014G19KT 34/19 A2982 RMK A01 T03410190  RH  041%=      5-min Rain = 0
KDO1 190210Z 16013KT 34/19 A2982 RMK A01 T03410190  RH  041%=      5-min Rain = 0
KDO1 190211Z 16011G16KT 34/19 A2982 RMK A01 T03410190  RH  041%=      5-min Rain = 0
KDO1 190212Z 16013KT 34/19 A2982 RMK A01 T03410190  RH  041%=      5-min Rain = 0
KDO1 190213Z 16014KT 34/19 A2982 RMK A01 T03400190  RH  041%=      5-min Rain = 0
KDO1 190214Z 15011KT 34/19 A2982 RMK A01 T03400190  RH  041%=      5-min Rain = 0
KDO1 190215Z 16012KT 34/19 A2982 RMK A01 T03400190  RH  041%=      5-min Rain = 0
KDO1 190216Z 15010KT 34/19 A2982 RMK A01 T03390190  RH  041%=      5-min Rain = 0
KDO1 190217Z 15012KT 34/19 A2982 RMK A01 T03390189  RH  041%=      5-min Rain = 0
KDO1 190218Z 16014KT 34/19 A2982 RMK A01 T03390189  RH  041%=      5-min Rain = 0
KDO1 190219Z 16015KT 34/19 A2982 RMK A01 T03390189  RH  041%=      5-min Rain = 0
KDO1 190220Z 16013KT 34/19 A2982 RMK A01 T03390189  RH  041%=      5-min Rain = 0
KDO1 190221Z 16011KT 34/19 A2982 RMK A01 T03380189  RH  041%=      5-min Rain = 0
KDO1 190222Z 16011KT 34/19 A2982 RMK A01 T03380189  RH  041%=      5-min Rain = 0
KDO1 190223Z 16011KT 34/19 A2982 RMK A01 T03380190  RH  042%=      5-min Rain = 0
KDO1 190224Z 16011G16KT 34/19 A2982 RMK A01 T03370189  RH  042%=      5-min Rain = 0
KDO1 190225Z 16012KT 34/19 A2982 RMK A01 T03370190  RH  042%=      5-min Rain = 0
KDO1 190226Z 16011KT 34/19 A2982 RMK A01 T03370189  RH  042%=      5-min Rain = 0
KDO1 190227Z 16011KT 34/19 A2982 RMK A01 T03360189  RH  042%=      5-min Rain = 0
KDO1 190228Z 16014KT 34/19 A2982 RMK A01 T03360189  RH  042%=      5-min Rain = 0
KDO1 190229Z 16013KT 34/19 A2982 RMK A01 T03360189  RH  042%=      5-min Rain = 0
KDO1 190230Z 16012KT 34/19 A2982 RMK A01 T03360189  RH  042%=      5-min Rain = 0
KDO1 190231Z 16011KT 34/19 A2983 RMK A01 T03350189  RH  042%=      5-min Rain = 0
KDO1 190232Z 16011G16KT 34/19 A2983 RMK A01 T03350189  RH  042%=      5-min Rain = 0
KDO1 190233Z 16013KT 33/19 A2983 RMK A01 T03340189  RH  042%=      5-min Rain = 0
KDO1 190234Z 16011KT 33/19 A2983 RMK A01 T03340188  RH  042%=      5-min Rain = 0
KDO1 190235Z 16012KT 33/19 A2983 RMK A01 T03340188  RH  042%=      5-min Rain = 0
KDO1 190236Z 16012KT 33/19 A2983 RMK A01 T03340188  RH  042%=      5-min Rain = 0
KDO1 190237Z 16013G18KT 34/19 A2983 RMK A01 T03350188  RH  042%=      5-min Rain = 0
KDO1 190238Z 16011KT 33/19 A2983 RMK A01 T03340188  RH  042%=      5-min Rain = 0
KDO1 190239Z 15013KT 34/19 A2983 RMK A01 T03350188  RH  042%=      5-min Rain = 0
KDO1 190240Z 16011KT 33/19 A2983 RMK A01 T03340188  RH  042%=      5-min Rain = 0
KDO1 190241Z 16011KT 33/19 A2983 RMK A01 T03340188  RH  042%=      5-min Rain = 0
KDO1 190242Z 16015KT 33/19 A2983 RMK A01 T03340188  RH  042%=      5-min Rain = 0
KDO1 190243Z 16010G15KT 33/19 A2983 RMK A01 T03330187  RH  042%=      5-min Rain = 0
KDO1 190244Z 16013KT 33/19 A2983 RMK A01 T03330187  RH  042%=      5-min Rain = 0
KDO1 190245Z 16012KT 33/19 A2983 RMK A01 T03330187  RH  042%=      5-min Rain = 0
KDO1 190246Z 16010KT 33/19 A2983 RMK A01 T03330188  RH  042%=      5-min Rain = 0
KDO1 190247Z 16010KT 33/19 A2983 RMK A01 T03330188  RH  042%=      5-min Rain = 0
KDO1 190248Z 15010KT 33/19 A2983 RMK A01 T03320187  RH  043%=      5-min Rain = 0
KDO1 190249Z 16011G16KT 33/19 A2983 RMK A01 T03310188  RH  043%=      5-min Rain = 0
KDO1 190250Z 16011KT 33/19 A2983 RMK A01 T03310187  RH  043%=      5-min Rain = 0
KDO1 190251Z 16010G15KT 33/19 A2983 RMK A01 T03310187  RH  043%=      5-min Rain = 0
KDO1 190252Z 15010G15KT 33/19 A2983 RMK A01 T03300188  RH  043%=      5-min Rain = 0
KDO1 190253Z 16010KT 33/19 A2983 RMK A01 T03300187  RH  043%=      5-min Rain = 0
KDO1 190254Z 15009KT 33/19 A2984 RMK A01 T03290188  RH  043%=      5-min Rain = 0
KDO1 190255Z 15010KT 33/19 A2984 RMK A01 T03290188  RH  043%=      5-min Rain = 0
KDO1 190256Z 15008KT 33/19 A2984 RMK A01 T03280187  RH  043%=      5-min Rain = 0
KDO1 190257Z 15007KT 33/19 A2984 RMK A01 T03270187  RH  044%=      5-min Rain = 0
KDO1 190258Z 15008KT 33/19 A2984 RMK A01 T03260187  RH  044%=      5-min Rain = 0
KDO1 190259Z 15009KT 33/19 A2984 RMK A01 T03260188  RH  044%=      5-min Rain = 0
KDO1 190300Z 14009KT 33/19 A2984 RMK A01 T03250188  RH  044%=      5-min Rain = 0
KDO1 190301Z 14008KT 33/19 A2984 RMK A01 T03250188  RH  044%=      5-min Rain = 0
KDO1 190302Z 14008KT 32/19 A2984 RMK A01 T03240188  RH  045%=      5-min Rain = 0
KDO1 190303Z 14008KT 32/19 A2984 RMK A01 T03230188  RH  045%=      5-min Rain = 0
KDO1 190304Z 15010KT 32/19 A2984 RMK A01 T03230188  RH  045%=      5-min Rain = 0
KDO1 190305Z 14008KT 32/19 A2984 RMK A01 T03220189  RH  045%=      5-min Rain = 0
KDO1 190306Z 14007KT 32/19 A2984 RMK A01 T03220189  RH  045%=      5-min Rain = 0
KDO1 190307Z 14008KT 32/19 A2984 RMK A01 T03210189  RH  046%=      5-min Rain = 0
KDO1 190308Z 14009KT 32/19 A2984 RMK A01 T03200189  RH  046%=      5-min Rain = 0
KDO1 190309Z 14008KT 32/19 A2984 RMK A01 T03190189  RH  046%=      5-min Rain = 0
KDO1 190310Z 14008KT 32/19 A2984 RMK A01 T03190189  RH  046%=      5-min Rain = 0
KDO1 190311Z 15008KT 32/19 A2984 RMK A01 T03190189  RH  046%=      5-min Rain = 0
KDO1 190312Z 14008KT 32/19 A2984 RMK A01 T03190189  RH  046%=      5-min Rain = 0
KDO1 190313Z 14006KT 32/19 A2984 RMK A01 T03180189  RH  046%=      5-min Rain = 0
KDO1 190314Z 14007KT 32/19 A2984 RMK A01 T03180189  RH  047%=      5-min Rain = 0
KDO1 190315Z 14008KT 32/19 A2984 RMK A01 T03170189  RH  047%=      5-min Rain = 0
KDO1 190316Z 14008KT 32/19 A2984 RMK A01 T03170189  RH  047%=      5-min Rain = 0
KDO1 190317Z 15008KT 32/19 A2985 RMK A01 T03160189  RH  047%=      5-min Rain = 0
KDO1 190318Z 15007KT 32/19 A2985 RMK A01 T03160189  RH  047%=      5-min Rain = 0
KDO1 190319Z 15007KT 32/19 A2985 RMK A01 T03160190  RH  047%=      5-min Rain = 0
KDO1 190320Z 15008KT 32/19 A2985 RMK A01 T03160189  RH  047%=      5-min Rain = 0
KDO1 190321Z 15009KT 32/19 A2985 RMK A01 T03150189  RH  047%=      5-min Rain = 0
KDO1 190322Z 15010KT 32/19 A2985 RMK A01 T03150190  RH  047%=      5-min Rain = 0
KDO1 190323Z 14009KT 32/19 A2985 RMK A01 T03150189  RH  047%=      5-min Rain = 0
KDO1 190324Z 15008G14KT 32/19 A2985 RMK A01 T03160190  RH  047%=      5-min Rain = 0
KDO1 190325Z 15008KT 32/19 A2985 RMK A01 T03160190  RH  047%=      5-min Rain = 0
KDO1 190326Z 15009KT 32/19 A2985 RMK A01 T03160190  RH  047%=      5-min Rain = 0
KDO1 190327Z 15010KT 32/19 A2985 RMK A01 T03160190  RH  047%=      5-min Rain = 0
KDO1 190328Z 15008G14KT 32/19 A2985 RMK A01 T03160190  RH  047%=      5-min Rain = 0
KDO1 190329Z 15011KT 32/19 A2985 RMK A01 T03150190  RH  047%=      5-min Rain = 0
KDO1 190330Z 15009KT 32/19 A2985 RMK A01 T03150190  RH  047%=      5-min Rain = 0
KDO1 190331Z 15011KT 32/19 A2985 RMK A01 T03160190  RH  047%=      5-min Rain = 0
KDO1 190332Z 15010KT 32/19 A2985 RMK A01 T03160190  RH  047%=      5-min Rain = 0
KDO1 190333Z 15009KT 32/19 A2985 RMK A01 T03160191  RH  047%=      5-min Rain = 0
KDO1 190334Z 16007KT 32/19 A2985 RMK A01 T03160191  RH  047%=      5-min Rain = 0
KDO1 190335Z 15009KT 32/19 A2985 RMK A01 T03160191  RH  047%=      5-min Rain = 0
KDO1 190336Z 15009KT 32/19 A2985 RMK A01 T03150191  RH  048%=      5-min Rain = 0
KDO1 190337Z 14008KT 32/19 A2985 RMK A01 T03150191  RH  048%=      5-min Rain = 0
KDO1 190338Z 15009KT 31/19 A2985 RMK A01 T03140191  RH  048%=      5-min Rain = 0
KDO1 190339Z 15009KT 31/19 A2986 RMK A01 T03140191  RH  048%=      5-min Rain = 0
KDO1 190340Z 15009KT 31/19 A2986 RMK A01 T03140191  RH  048%=      5-min Rain = 0
KDO1 190341Z 15010KT 31/19 A2986 RMK A01 T03130191  RH  048%=      5-min Rain = 0
KDO1 190342Z 15008KT 31/19 A2986 RMK A01 T03130191  RH  048%=      5-min Rain = 0
KDO1 190343Z 15008KT 31/19 A2986 RMK A01 T03130191  RH  048%=      5-min Rain = 0
KDO1 190344Z 15009KT 31/19 A2986 RMK A01 T03130191  RH  048%=      5-min Rain = 0
KDO1 190345Z 15010KT 31/19 A2986 RMK A01 T03130191  RH  048%=      5-min Rain = 0
KDO1 190346Z 15010KT 31/19 A2986 RMK A01 T03130191  RH  048%=      5-min Rain = 0
KDO1 190347Z 15008KT 31/19 A2986 RMK A01 T03130190  RH  048%=      5-min Rain = 0
KDO1 190348Z 15009KT 31/19 A2986 RMK A01 T03130191  RH  048%=      5-min Rain = 0
KDO1 190349Z 15009KT 31/19 A2986 RMK A01 T03130191  RH  048%=      5-min Rain = 0
KDO1 190350Z 15008KT 31/19 A2986 RMK A01 T03130191  RH  048%=      5-min Rain = 0
KDO1 190351Z 15008KT 31/19 A2986 RMK A01 T03130191  RH  048%=      5-min Rain = 0
KDO1 190352Z 15008KT 31/19 A2986 RMK A01 T03120191  RH  048%=      5-min Rain = 0
KDO1 190353Z 14008KT 31/19 A2986 RMK A01 T03120191  RH  049%=      5-min Rain = 0
KDO1 190354Z 15010KT 31/19 A2986 RMK A01 T03120191  RH  049%=      5-min Rain = 0
KDO1 190355Z 15009KT 31/19 A2986 RMK A01 T03110191  RH  049%=      5-min Rain = 0
KDO1 190356Z 15009KT 31/19 A2986 RMK A01 T03110191  RH  049%=      5-min Rain = 0
KDO1 190357Z 15009KT 31/19 A2986 RMK A01 T03110191  RH  049%=      5-min Rain = 0
KDO1 190358Z 15009KT 31/19 A2986 RMK A01 T03110191  RH  049%=      5-min Rain = 0
KDO1 190359Z 15008KT 31/19 A2986 RMK A01 T03110191  RH  049%=      5-min Rain = 0
KDO1 190400Z 16008KT 31/19 A2986 RMK A01 T03110191  RH  049%=      5-min Rain = 0
KDO1 190401Z 15008KT 31/19 A2986 RMK A01 T03110191  RH  049%=      5-min Rain = 0
KDO1 190402Z 15009KT 31/19 A2986 RMK A01 T03100191  RH  049%=      5-min Rain = 0
KDO1 190403Z 15009KT 31/19 A2986 RMK A01 T03100191  RH  049%=      5-min Rain = 0
KDO1 190404Z 16010KT 31/19 A2986 RMK A01 T03100191  RH  049%=      5-min Rain = 0
KDO1 190405Z 15008KT 31/19 A2986 RMK A01 T03100190  RH  049%=      5-min Rain = 0
KDO1 190406Z 15010KT 31/19 A2986 RMK A01 T03100190  RH  049%=      5-min Rain = 0
KDO1 190407Z 15009KT 31/19 A2987 RMK A01 T03110191  RH  049%=      5-min Rain = 0
KDO1 190408Z 15010KT 31/19 A2987 RMK A01 T03100191  RH  049%=      5-min Rain = 0
KDO1 190409Z 15009KT 31/19 A2987 RMK A01 T03110191  RH  049%=      5-min Rain = 0
KDO1 190410Z 15010KT 31/19 A2987 RMK A01 T03100190  RH  049%=      5-min Rain = 0
KDO1 190411Z 15009KT 31/19 A2987 RMK A01 T03100191  RH  049%=      5-min Rain = 0
KDO1 190412Z 15009KT 31/19 A2987 RMK A01 T03100191  RH  049%=      5-min Rain = 0
KDO1 190413Z 16008KT 31/19 A2987 RMK A01 T03090191  RH  049%=      5-min Rain = 0
KDO1 190414Z 15007KT 31/19 A2987 RMK A01 T03090191  RH  049%=      5-min Rain = 0
KDO1 190415Z 15009KT 31/19 A2987 RMK A01 T03090191  RH  049%=      5-min Rain = 0
KDO1 190416Z 15008KT 31/19 A2987 RMK A01 T03080190  RH  049%=      5-min Rain = 0
KDO1 190417Z 15008KT 31/19 A2987 RMK A01 T03080191  RH  050%=      5-min Rain = 0
KDO1 190418Z 15008KT 31/19 A2987 RMK A01 T03080190  RH  050%=      5-min Rain = 0
KDO1 190419Z 15008KT 31/19 A2987 RMK A01 T03070190  RH  050%=      5-min Rain = 0
KDO1 190420Z 16007KT 31/19 A2987 RMK A01 T03070190  RH  050%=      5-min Rain = 0
KDO1 190421Z 15009KT 31/19 A2987 RMK A01 T03070190  RH  050%=      5-min Rain = 0
KDO1 190422Z 15009KT 31/19 A2987 RMK A01 T03070190  RH  050%=      5-min Rain = 0
KDO1 190423Z 15009KT 31/19 A2987 RMK A01 T03070190  RH  050%=      5-min Rain = 0
KDO1 190424Z 15009KT 31/19 A2987 RMK A01 T03070190  RH  050%=      5-min Rain = 0
KDO1 190425Z 15007KT 31/19 A2987 RMK A01 T03070190  RH  050%=      5-min Rain = 0
KDO1 190426Z 16008KT 31/19 A2987 RMK A01 T03070190  RH  050%=      5-min Rain = 0
KDO1 190427Z 15007KT 31/19 A2987 RMK A01 T03070191  RH  050%=      5-min Rain = 0
KDO1 190428Z 15008KT 31/19 A2987 RMK A01 T03060190  RH  050%=      5-min Rain = 0
KDO1 190429Z 15008KT 31/19 A2987 RMK A01 T03060190  RH  050%=      5-min Rain = 0
KDO1 190430Z 16009KT 31/19 A2987 RMK A01 T03060190  RH  050%=      5-min Rain = 0
KDO1 190431Z 15008KT 31/19 A2987 RMK A01 T03060190  RH  050%=      5-min Rain = 0
KDO1 190432Z 16008KT 31/19 A2987 RMK A01 T03060190  RH  050%=      5-min Rain = 0
KDO1 190433Z 15008KT 31/19 A2987 RMK A01 T03060190  RH  050%=      5-min Rain = 0
KDO1 190434Z 15007KT 31/19 A2987 RMK A01 T03060190  RH  050%=      5-min Rain = 0
KDO1 190435Z 15008KT 31/19 A2987 RMK A01 T03050190  RH  050%=      5-min Rain = 0
KDO1 190436Z 15010KT 31/19 A2987 RMK A01 T03050190  RH  050%=      5-min Rain = 0
KDO1 190437Z 15008KT 31/19 A2987 RMK A01 T03050190  RH  050%=      5-min Rain = 0
KDO1 190438Z 15008KT 30/19 A2987 RMK A01 T03040190  RH  050%=      5-min Rain = 0
KDO1 190439Z 15006KT 31/19 A2987 RMK A01 T03050190  RH  050%=      5-min Rain = 0
KDO1 190440Z 15007KT 30/19 A2987 RMK A01 T03040190  RH  051%=      5-min Rain = 0
KDO1 190441Z 15008KT 30/19 A2987 RMK A01 T03030190  RH  051%=      5-min Rain = 0
KDO1 190442Z 14007KT 30/19 A2988 RMK A01 T03030190  RH  051%=      5-min Rain = 0
KDO1 190443Z 14007KT 30/19 A2988 RMK A01 T03030190  RH  051%=      5-min Rain = 0
KDO1 190444Z 15007KT 30/19 A2988 RMK A01 T03020190  RH  051%=      5-min Rain = 0
KDO1 190445Z 15008KT 30/19 A2988 RMK A01 T03010190  RH  051%=      5-min Rain = 0
KDO1 190446Z 15008KT 30/19 A2988 RMK A01 T03010190  RH  051%=      5-min Rain = 0
KDO1 190447Z 15009KT 30/19 A2988 RMK A01 T03010190  RH  051%=      5-min Rain = 0
KDO1 190448Z 15007KT 30/19 A2988 RMK A01 T03010190  RH  051%=      5-min Rain = 0
KDO1 190449Z 15008KT 30/19 A2988 RMK A01 T03010190  RH  051%=      5-min Rain = 0
KDO1 190450Z 15008KT 30/19 A2988 RMK A01 T03010190  RH  051%=      5-min Rain = 0
KDO1 190451Z 15006KT 30/19 A2988 RMK A01 T03000190  RH  052%=      5-min Rain = 0
KDO1 190452Z 14005KT 30/19 A2988 RMK A01 T03000190  RH  052%=      5-min Rain = 0
KDO1 190453Z 14005KT 30/19 A2988 RMK A01 T02990190  RH  052%=      5-min Rain = 0
KDO1 190454Z 14006KT 30/19 A2988 RMK A01 T02980190  RH  052%=      5-min Rain = 0
KDO1 190455Z 14006KT 30/19 A2988 RMK A01 T02980190  RH  052%=      5-min Rain = 0
KDO1 190456Z 15005KT 30/19 A2988 RMK A01 T02970190  RH  053%=      5-min Rain = 0
KDO1 190457Z 14005KT 30/19 A2988 RMK A01 T02960190  RH  053%=      5-min Rain = 0
KDO1 190458Z 15006KT 30/19 A2988 RMK A01 T02950190  RH  053%=      5-min Rain = 0
KDO1 190459Z 15007KT 30/19 A2988 RMK A01 T02950190  RH  053%=      5-min Rain = 0

Page generated in 0.0857 seconds.